Latitude: N 50° 09' 49" Longitude: W 05° 11' 53" Elevation: 168m ASL

There are 22 visitors online

Adverts

<- Previous Day | Today | Next Day ->

All Data for 20 September 2018

Time
A - D
Temp
A - D
Dew Point
A - D
Humidity
A - D
Pressure
A - D
Wind
A - D
Wind Dir Gust
A - D
Rain Rate
A - D
Rain Total
00:00 15.2 15.1 99 1013.2 17.4 SW 19.7 0.0 0.0
00:01 15.3 15.2 99 1013.0 24.4 SW 24.4 0.0 0.0
00:02 15.4 15.3 99 1013.2 22.1 SE 24.4 0.0 0.0
00:03 15.4 15.3 99 1013.1 22.1 SSE 24.4 0.0 0.0
00:04 15.6 15.5 99 1013.1 16.8 S 24.4 0.0 0.0
00:05 15.6 15.5 99 1013.2 20.6 S 24.4 0.0 0.0
00:06 15.6 15.5 99 1013.2 15.9 S 24.4 0.0 0.0
00:07 15.7 15.6 99 1013.1 20.6 SE 24.4 0.0 0.0
00:08 15.7 15.6 99 1013.1 21.3 SE 24.4 0.0 0.0
00:09 15.7 15.6 99 1013.2 17.4 S 24.4 0.0 0.0
00:10 15.8 15.7 99 1013.1 15.2 S 24.4 0.0 0.0
00:11 15.8 15.7 99 1013.1 16.8 S 24.4 0.0 0.0
00:12 15.8 15.7 99 1013.0 15.9 NW 22.1 0.0 0.0
00:13 15.8 15.7 99 1013.0 15.9 SE 22.1 0.0 0.0
00:14 15.9 15.8 99 1013.1 17.4 SE 21.3 0.0 0.0
00:15 15.9 15.8 99 1013.0 13.0 S 21.3 0.0 0.0
00:16 15.9 15.8 99 1013.1 19.0 S 25.1 0.0 0.0
00:17 16.0 15.9 99 1013.1 15.9 S 25.1 0.0 0.0
00:18 16.0 15.9 99 1013.0 14.5 S 25.1 0.0 0.0
00:19 16.0 15.9 99 1013.1 15.2 SW 25.1 0.0 0.0
00:20 16.0 15.9 99 1013.0 19.7 W 25.1 0.0 0.0
00:21 16.0 15.9 99 1012.9 13.6 S 25.1 0.0 0.0
00:22 16.1 16.0 99 1012.9 24.4 S 25.1 0.0 0.0
00:23 16.1 16.0 99 1013.1 16.8 SW 25.1 0.0 0.0
00:24 16.1 16.0 99 1013.0 17.4 SE 25.1 0.0 0.0
00:25 16.1 16.0 99 1013.0 17.4 SE 25.1 0.0 0.0
00:26 16.1 16.0 99 1013.0 18.3 S 24.4 0.0 0.0
00:27 16.1 16.0 99 1012.9 21.3 SE 24.4 0.0 0.0
00:28 16.1 16.0 99 1012.9 21.3 S 24.4 0.0 0.0
00:29 16.2 16.1 99 1012.9 13.6 SE 24.4 0.0 0.0
00:30 16.2 16.1 99 1012.9 17.4 SE 24.4 0.0 0.0
00:31 16.1 16.0 99 1012.6 22.1 SE 24.4 0.0 0.0
00:32 16.2 16.1 99 1012.8 20.6 S 24.4 0.0 0.0
00:33 16.2 16.1 99 1012.8 16.8 SE 22.1 0.0 0.0
00:34 16.2 16.1 99 1012.9 15.9 SW 22.1 0.0 0.0
00:35 16.2 16.1 99 1012.9 19.0 S 22.1 0.0 0.0
00:36 16.2 16.1 99 1012.7 19.0 S 22.1 0.0 0.0
00:37 16.2 16.1 99 1012.6 22.1 S 22.1 0.0 0.0
00:38 16.2 16.1 99 1012.8 17.4 S 22.1 0.0 0.0
00:39 16.2 16.1 99 1012.7 16.8 S 22.1 0.0 0.0
00:40 16.2 16.1 99 1012.7 15.9 S 22.1 0.0 0.0
00:41 16.2 16.1 99 1012.8 14.5 S 22.1 0.0 0.0
00:42 16.2 16.1 99 1012.8 21.3 NNE 22.1 0.0 0.0
00:43 16.2 16.1 99 1012.8 16.8 S 22.1 0.0 0.0
00:44 16.2 16.1 99 1012.7 16.8 NW 22.1 0.0 0.0
00:45 16.2 16.1 99 1012.6 23.5 NE 23.5 0.0 0.0
00:46 16.2 16.1 99 1012.6 19.0 SE 23.5 0.0 0.0
00:47 16.2 16.1 99 1012.8 22.8 S 23.5 0.0 0.0
00:48 16.2 16.1 99 1012.7 16.8 SW 23.5 0.0 0.0
00:49 16.2 16.1 99 1012.7 23.5 SW 23.5 0.0 0.0
00:50 16.2 16.1 99 1012.7 21.3 S 23.5 0.0 0.0
00:51 16.2 16.1 99 1012.6 20.6 S 23.5 0.0 0.0
00:52 16.2 16.1 99 1012.6 19.7 SW 23.5 0.0 0.0
00:53 16.2 16.1 99 1012.7 24.4 SE 24.4 0.0 0.0
00:54 16.2 16.1 99 1012.6 23.5 SE 24.4 0.0 0.0
00:55 16.2 16.1 99 1012.8 20.6 S 24.4 0.0 0.0
00:56 16.2 16.1 99 1012.6 13.0 S 24.4 0.0 0.0
00:57 16.3 16.2 99 1012.8 18.3 SE 24.4 0.0 0.0
00:58 16.2 16.1 99 1012.7 22.8 S 24.4 0.0 0.0
00:59 16.2 16.1 99 1012.7 22.8 S 24.4 0.0 0.0
01:00 16.3 16.2 99 1012.8 22.8 S 24.4 0.0 0.0
01:01 16.3 16.2 99 1012.6 29.8 SW 29.8 0.0 0.0
01:02 16.3 16.2 99 1012.5 23.5 S 29.8 0.0 0.0
01:03 16.3 16.2 99 1012.6 15.2 SSW 29.8 0.0 0.0
01:04 16.3 16.2 99 1012.6 22.1 S 29.8 0.0 0.0
01:05 16.3 16.2 99 1012.5 20.6 SE 29.8 0.0 0.0
01:06 16.3 16.2 99 1012.6 19.0 SE 29.8 0.0 0.0
01:07 16.3 16.2 99 1012.7 22.8 S 29.8 0.0 0.0
01:08 16.3 16.2 99 1012.5 23.5 S 29.8 0.0 0.0
01:09 16.3 16.2 99 1012.5 20.6 S 29.8 0.0 0.0
01:10 16.3 16.2 99 1012.7 20.6 S 29.8 0.0 0.0
01:11 16.3 16.2 99 1012.5 20.6 S 29.8 0.0 0.0
01:12 16.3 16.2 99 1012.5 22.8 SW 26.6 0.0 0.0
01:13 16.3 16.2 99 1012.4 23.5 S 26.6 0.0 0.0
01:14 16.3 16.2 99 1012.6 19.7 SW 26.6 0.0 0.0
01:15 16.3 16.2 99 1012.4 23.5 S 26.6 0.0 0.0
01:16 16.3 16.2 99 1012.6 16.8 S 26.6 0.0 0.0
01:17 16.3 16.2 99 1012.4 22.1 S 26.6 0.0 0.0
01:18 16.3 16.2 99 1012.5 22.8 SE 26.6 0.0 0.0
01:19 16.3 16.2 99 1012.5 19.0 SW 23.5 0.0 0.0
01:20 16.3 16.2 99 1012.6 22.8 S 23.5 0.0 0.0
01:21 16.3 16.2 99 1012.5 26.6 S 26.6 0.0 0.0
01:22 16.3 16.2 99 1012.5 16.8 S 26.6 0.0 0.0
01:23 16.3 16.2 99 1012.4 18.3 SW 26.6 0.0 0.0
01:24 16.3 16.2 99 1012.7 15.9 SE 26.6 0.0 0.0
01:25 16.3 16.2 99 1012.4 23.5 SSW 26.6 0.0 0.0
01:26 16.3 16.2 99 1012.4 22.1 S 26.6 0.0 0.0
01:27 16.3 16.2 99 1012.7 22.8 S 26.6 0.0 0.0
01:28 16.3 16.2 99 1012.4 21.3 S 26.6 0.0 0.0
01:29 16.3 16.2 99 1012.4 17.4 SW 26.6 0.0 0.0
01:30 16.3 16.2 99 1012.5 22.1 SE 26.6 0.0 0.0
01:31 16.3 16.2 99 1012.5 22.8 S 26.6 0.0 0.0
01:32 16.2 16.1 99 1012.3 21.3 S 25.1 0.0 0.0
01:33 16.3 16.2 99 1012.4 22.8 SW 25.1 0.0 0.0
01:34 16.2 16.1 99 1012.3 22.1 S 25.1 0.0 0.0
01:35 16.3 16.2 99 1012.3 18.3 S 25.1 0.0 0.0
01:36 16.2 16.1 99 1012.4 25.1 S 25.1 0.0 0.0
01:37 16.3 16.2 99 1012.1 17.4 S 25.1 0.0 0.0
01:38 16.3 16.2 99 1012.3 19.0 S 25.1 0.0 0.0
01:39 16.3 16.2 99 1012.3 18.3 SE 25.1 0.0 0.0
01:40 16.2 16.1 99 1012.5 26.6 NE 26.6 0.0 0.0
01:41 16.3 16.2 99 1012.3 18.3 SE 26.6 0.0 0.0
01:42 16.3 16.2 99 1012.2 19.0 SW 26.6 0.0 0.0
01:43 16.3 16.2 99 1012.3 24.4 S 26.6 0.0 0.0
01:44 16.3 16.2 99 1012.1 20.6 S 26.6 0.0 0.0
01:45 16.3 16.2 99 1012.2 23.5 S 26.6 0.0 0.0
01:46 16.3 16.2 99 1012.2 23.5 S 26.6 0.0 0.0
01:47 16.3 16.2 99 1012.2 19.7 S 26.6 0.0 0.0
01:48 16.3 16.2 99 1012.3 19.0 S 26.6 0.0 0.0
01:49 16.3 16.2 99 1012.2 15.9 ESE 26.6 0.0 0.0
01:50 16.3 16.2 99 1012.2 15.9 ESE 26.6 0.0 0.0
01:51 16.3 16.2 99 1012.3 20.6 S 25.9 0.0 0.0
01:52 16.3 16.2 99 1012.2 18.3 SE 25.9 0.0 0.0
01:53 16.3 16.2 99 1012.4 25.1 S 25.9 0.0 0.0
01:54 16.3 16.2 99 1012.3 23.5 SW 25.9 0.0 0.0
01:55 16.3 16.2 99 1012.3 22.1 WSW 25.1 0.0 0.0
01:56 16.3 16.2 99 1012.3 21.3 S 25.1 0.0 0.0
01:57 16.3 16.2 99 1012.2 16.8 SW 25.1 0.0 0.0
01:58 16.3 16.2 99 1012.3 22.8 SW 25.1 0.0 0.0
01:59 16.3 16.2 99 1012.3 19.0 S 25.1 0.0 0.0
02:00 16.3 16.2 99 1012.3 14.5 WNW 25.1 0.0 0.0
02:01 16.3 16.2 99 1012.3 25.9 SE 25.9 0.0 0.0
02:02 16.3 16.2 99 1012.2 24.4 S 25.9 0.0 0.0
02:03 16.3 16.2 99 1012.2 25.1 SW 25.9 0.0 0.0
02:04 16.3 16.2 99 1012.2 15.9 SSW 25.9 0.0 0.0
02:05 16.3 16.2 99 1012.4 19.7 S 25.9 0.0 0.0
02:06 16.3 16.2 99 1012.2 19.0 S 25.9 0.0 0.0
02:07 16.3 16.2 99 1012.2 22.1 S 25.9 0.0 0.0
02:08 16.2 16.1 99 1012.3 20.6 S 25.9 0.0 0.0
02:09 16.2 16.1 99 1012.3 20.6 S 25.9 0.0 0.0
02:10 16.3 16.2 99 1012.2 17.4 SE 25.9 0.0 0.0
02:11 16.2 16.1 99 1012.1 19.0 SW 25.9 0.0 0.0
02:12 16.2 16.1 99 1012.2 15.9 SE 25.1 0.0 0.0
02:13 16.2 16.1 99 1012.1 19.0 SW 25.1 0.0 0.0
02:14 16.2 16.1 99 1012.1 15.9 SSE 22.1 0.0 0.0
02:15 16.2 16.1 99 1012.2 25.1 S 25.1 0.0 0.0
02:16 16.2 16.1 99 1012.2 22.1 S 25.1 0.0 0.0
02:17 16.2 16.1 99 1012.2 20.6 S 25.1 0.0 0.0
02:18 16.2 16.1 99 1012.1 14.5 SE 25.1 0.0 0.0
02:19 16.2 16.1 99 1012.1 16.8 SE 25.1 0.0 0.0
02:20 16.2 16.1 99 1012.1 19.0 S 25.1 0.0 0.0
02:21 16.2 16.1 99 1012.0 20.6 SE 25.1 0.0 0.0
02:22 16.2 16.1 99 1012.1 20.6 S 25.1 0.0 0.0
02:23 16.2 16.1 99 1012.2 18.3 S 25.1 0.0 0.0
02:24 16.2 16.1 99 1012.1 23.5 S 25.1 0.0 0.0
02:25 16.2 16.1 99 1012.1 22.8 S 25.1 0.0 0.0
02:26 16.2 16.1 99 1012.2 25.1 SSE 25.1 0.0 0.0
02:27 16.2 16.1 99 1012.2 25.9 SW 25.9 0.0 0.0
02:28 16.2 16.1 99 1012.1 13.6 SSE 25.9 0.0 0.0
02:29 16.2 16.1 99 1012.1 17.4 S 25.9 0.0 0.0
02:30 16.3 16.2 99 1012.1 20.6 S 25.9 0.0 0.0
02:31 16.2 16.1 99 1012.2 19.0 S 25.9 0.0 0.0
02:32 16.3 16.2 99 1012.3 19.0 S 25.9 0.0 0.0
02:33 16.2 16.1 99 1012.1 22.8 S 25.9 0.0 0.0
02:34 16.2 16.1 99 1012.1 22.1 SW 25.9 0.0 0.0
02:35 16.3 16.2 99 1012.0 14.5 S 25.9 0.0 0.0
02:36 16.3 16.2 99 1012.1 21.3 SE 25.9 0.0 0.0
02:37 16.3 16.2 99 1012.1 16.8 SW 25.9 0.0 0.0
02:38 16.3 16.2 99 1012.2 18.3 SE 23.5 0.0 0.0
02:39 16.3 16.2 99 1012.1 18.3 S 23.5 0.0 0.0
02:40 16.2 16.1 99 1012.0 18.3 S 23.5 0.0 0.0
02:41 16.3 16.2 99 1012.0 24.4 S 24.4 0.0 0.0
02:42 16.3 16.2 99 1012.1 22.1 S 24.4 0.0 0.0
02:43 16.2 16.1 99 1012.1 16.8 SE 24.4 0.0 0.0
02:44 16.3 16.2 99 1012.0 24.4 S 24.4 0.0 0.0
02:45 16.3 16.2 99 1012.0 20.6 S 24.4 0.0 0.0
02:46 16.3 16.2 99 1012.0 17.4 S 24.4 0.0 0.0
02:47 16.3 16.2 99 1012.0 21.3 S 24.4 0.0 0.0
02:48 16.3 16.2 99 1012.0 19.7 SW 24.4 0.0 0.0
02:49 16.3 16.2 99 1012.0 16.8 S 24.4 0.0 0.0
02:50 16.3 16.2 99 1012.0 15.9 SW 24.4 0.0 0.0
02:51 16.3 16.2 99 1012.0 23.5 S 24.4 0.0 0.0
02:52 16.3 16.2 99 1011.9 23.5 N 24.4 0.0 0.0
02:53 16.3 16.2 99 1012.1 22.1 S 24.4 0.0 0.0
02:54 16.3 16.2 99 1012.1 22.1 S 24.4 0.0 0.0
02:55 16.3 16.2 99 1012.0 20.6 S 23.5 0.0 0.0
02:56 16.3 16.2 99 1012.0 22.1 S 23.5 0.0 0.0
02:57 16.3 16.2 99 1011.8 19.0 S 23.5 0.0 0.0
02:58 16.3 16.2 99 1011.8 24.4 SE 24.4 0.0 0.0
02:59 16.2 16.1 99 1012.0 17.4 S 24.4 0.0 0.0
03:00 16.3 16.2 99 1012.0 22.8 SSE 24.4 0.0 0.0
03:01 16.3 16.2 99 1012.0 15.9 SW 24.4 0.0 0.0
03:02 16.3 16.2 99 1012.0 15.2 S 24.4 0.0 0.0
03:03 16.3 16.2 99 1012.0 17.4 S 24.4 0.0 0.0
03:04 16.3 16.2 99 1012.0 21.3 S 24.4 0.0 0.0
03:05 16.3 16.2 99 1011.9 14.5 NE 24.4 0.0 0.0
03:06 16.3 16.2 99 1012.1 15.9 SW 24.4 0.0 0.0
03:07 16.3 16.2 99 1012.0 22.1 WNW 24.4 0.0 0.0
03:08 16.3 16.2 99 1011.9 20.6 SW 24.4 0.0 0.0
03:09 16.3 16.2 99 1012.0 16.8 SE 22.8 0.0 0.0
03:10 16.3 16.2 99 1011.9 14.5 WSW 22.8 0.0 0.0
03:11 16.3 16.2 99 1011.9 15.9 S 22.1 0.0 0.0
03:12 16.3 16.2 99 1011.9 14.5 S 22.1 0.0 0.0
03:13 16.3 16.2 99 1012.0 22.8 S 22.8 0.0 0.0
03:14 16.3 16.2 99 1011.8 20.6 SE 22.8 0.0 0.0
03:15 16.3 16.2 99 1012.0 19.7 S 22.8 0.0 0.0
03:16 16.3 16.2 99 1012.0 18.3 SE 22.8 0.0 0.0
03:17 16.3 16.2 99 1011.9 18.3 S 22.8 0.0 0.0
03:19 16.3 16.2 99 1012.0 15.9 SW 22.8 0.0 0.0
03:20 16.3 16.2 99 1012.1 19.7 SW 22.8 0.0 0.0
03:21 16.3 16.2 99 1012.0 14.5 S 22.8 0.0 0.0
03:22 16.3 16.2 99 1012.2 15.2 S 22.8 0.0 0.0
03:23 16.3 16.2 99 1011.9 18.3 SE 20.6 0.0 0.0
03:24 16.3 16.2 99 1012.1 19.0 SE 19.7 0.0 0.0
03:25 16.3 16.2 99 1012.2 20.6 SSW 20.6 0.0 0.0
03:26 16.3 16.2 99 1012.1 19.0 S 20.6 0.0 0.0
03:27 16.3 16.2 99 1011.9 20.6 S 20.6 0.0 0.0
03:28 16.3 16.2 99 1012.1 17.4 SE 20.6 0.0 0.0
03:29 16.3 16.2 99 1012.0 19.0 S 20.6 0.0 0.0
03:30 16.3 16.2 99 1012.0 19.0 S 20.6 0.0 0.0
03:31 16.3 16.2 99 1012.0 19.0 S 20.6 0.0 0.0
03:32 16.3 16.2 99 1011.9 19.7 SSW 20.6 0.0 0.0
03:33 16.3 16.2 99 1012.0 19.7 S 20.6 0.0 0.0
03:34 16.3 16.2 99 1011.9 25.1 SE 25.1 0.8 0.1
03:35 16.3 16.2 99 1012.0 20.6 S 25.1 0.8 0.1
03:36 16.3 16.2 99 1011.8 16.8 S 25.1 0.8 0.1
03:37 16.2 16.1 99 1011.9 22.1 SE 25.1 0.8 0.1
03:38 16.2 16.1 99 1012.0 24.4 S 25.1 0.8 0.1
03:39 16.2 16.1 99 1012.0 19.0 S 25.1 0.0 0.1
03:41 16.2 16.1 99 1012.0 15.2 SE 25.1 0.0 0.1
03:42 16.3 16.2 99 1011.8 19.7 S 25.1 0.0 0.1
03:43 16.2 16.1 99 1012.0 14.5 WNW 25.1 0.0 0.1
03:44 16.2 16.1 99 1011.8 22.1 SSW 25.1 0.0 0.1
03:45 16.3 16.2 99 1011.9 20.6 SW 24.4 0.0 0.1
03:46 16.3 16.2 99 1011.9 19.7 SSW 24.4 0.0 0.1
03:47 16.2 16.1 99 1012.0 19.7 SW 24.4 0.0 0.1
03:48 16.2 16.1 99 1011.8 15.9 S 24.4 0.0 0.1
03:49 16.3 16.2 99 1011.9 18.3 S 22.1 0.0 0.1
03:50 16.2 16.1 99 1011.8 22.1 SE 22.1 0.0 0.1
03:51 16.3 16.2 99 1011.9 14.5 S 22.1 0.0 0.1
03:52 16.3 16.2 99 1012.0 18.3 S 22.1 0.0 0.1
03:53 16.2 16.1 99 1011.9 23.5 SW 23.5 0.0 0.1
03:54 16.2 16.1 99 1011.8 19.7 SE 23.5 0.0 0.1
03:55 16.3 16.2 99 1011.8 16.8 S 23.5 0.0 0.1
03:56 16.2 16.1 99 1011.9 18.3 SW 23.5 0.0 0.1
03:57 16.3 16.2 99 1011.9 15.9 S 23.5 0.0 0.1
03:58 16.3 16.2 99 1012.0 20.6 S 23.5 0.0 0.1
03:59 16.2 16.1 99 1012.0 16.8 SE 23.5 0.0 0.1
04:00 16.2 16.1 99 1011.8 15.2 S 23.5 0.0 0.1
04:01 16.3 16.2 99 1011.8 22.1 WSW 23.5 0.0 0.1
04:02 16.3 16.2 99 1011.8 20.6 SW 23.5 0.0 0.1
04:04 16.3 16.2 99 1011.9 15.9 SE 22.1 0.0 0.1
04:05 16.2 16.1 99 1011.8 15.9 SW 22.1 0.0 0.1
04:06 16.2 16.1 99 1011.9 20.6 S 22.1 0.0 0.1
04:07 16.2 16.1 99 1011.8 19.7 SW 22.1 0.0 0.1
04:08 16.2 16.1 99 1011.8 23.5 SW 23.5 0.0 0.1
04:09 16.2 16.1 99 1011.8 24.4 ESE 24.4 0.0 0.1
04:10 16.2 16.1 99 1011.8 24.4 ESE 24.4 0.0 0.1
04:11 16.2 16.1 99 1011.8 19.0 S 24.4 0.0 0.1
04:12 16.2 16.1 99 1011.7 19.0 S 24.4 0.0 0.1
04:13 16.2 16.1 99 1011.7 19.0 S 24.4 0.0 0.1
04:14 16.3 16.2 99 1011.7 16.8 S 24.4 0.0 0.1
04:15 16.2 16.1 99 1011.7 14.5 SSW 24.4 0.0 0.1
04:16 16.3 16.2 99 1011.8 18.3 S 24.4 0.0 0.1
04:17 16.2 16.1 99 1011.9 13.0 SE 24.4 0.0 0.1
04:18 16.2 16.1 99 1011.9 21.3 SE 24.4 0.0 0.1
04:19 16.2 16.1 99 1011.9 15.9 S 24.4 0.0 0.1
04:20 16.2 16.1 99 1012.0 17.4 S 24.4 0.0 0.1
04:21 16.2 16.1 99 1011.8 15.2 WSW 22.1 0.0 0.1
04:22 16.2 16.1 99 1011.9 28.9 S 28.9 0.0 0.1
04:24 16.2 16.1 99 1011.9 18.3 SW 28.9 0.0 0.1
04:25 16.2 16.1 99 1011.8 17.4 SW 28.9 0.0 0.1
04:26 16.2 16.1 99 1011.8 15.2 SW 28.9 0.0 0.1
04:27 16.2 16.1 99 1011.8 15.2 S 28.9 0.0 0.1
04:28 16.2 16.1 99 1011.8 17.4 SW 28.9 0.0 0.1
04:29 16.2 16.1 99 1011.8 12.1 SW 28.9 0.0 0.1
04:30 16.2 16.1 99 1011.7 15.2 S 28.9 0.0 0.1
04:31 16.2 16.1 99 1011.7 16.8 SW 28.9 0.0 0.1
04:32 16.2 16.1 99 1011.8 15.2 S 28.9 0.0 0.1
04:33 16.2 16.1 99 1011.8 14.5 SE 19.0 0.0 0.1
04:34 16.2 16.1 99 1011.8 21.3 S 21.3 0.0 0.1
04:35 16.2 16.1 99 1011.7 22.1 S 22.1 0.0 0.1
04:36 16.2 16.1 99 1011.6 19.7 SE 22.1 0.0 0.1
04:37 16.2 16.1 99 1011.8 15.9 S 22.1 0.0 0.1
04:38 16.2 16.1 99 1011.7 18.3 SW 22.8 0.0 0.1
04:39 16.2 16.1 99 1011.6 19.0 S 22.8 0.0 0.1
04:40 16.2 16.1 99 1011.6 20.6 S 22.8 0.0 0.1
04:42 16.2 16.1 99 1011.7 15.9 SW 22.8 0.0 0.1
04:43 16.2 16.1 99 1011.7 17.4 S 22.8 0.0 0.1
04:44 16.2 16.1 99 1011.9 16.8 S 22.8 0.0 0.1
04:45 16.2 16.1 99 1011.8 15.9 SW 22.8 0.0 0.1
04:46 16.2 16.1 99 1011.8 14.5 S 22.8 0.0 0.1
04:47 16.2 16.1 99 1011.8 15.2 WSW 22.8 0.0 0.1
04:48 16.2 16.1 99 1011.8 18.3 WNW 20.6 0.0 0.1
04:49 16.2 16.1 99 1011.8 13.6 SW 20.6 0.0 0.1
04:50 16.2 16.1 99 1011.8 19.7 S 19.7 0.0 0.1
04:51 16.2 16.1 99 1011.8 15.9 S 19.7 0.0 0.1
04:52 16.2 16.1 99 1011.6 19.0 S 19.7 0.0 0.1
04:53 16.2 16.1 99 1011.4 19.7 SW 19.7 0.0 0.1
04:54 16.2 16.1 99 1011.6 16.8 S 19.7 0.0 0.1
04:55 16.2 16.1 99 1011.6 20.6 S 20.6 0.8 0.2
04:56 16.2 16.1 99 1011.6 13.6 S 20.6 1.5 0.2
04:57 16.2 16.1 99 1011.6 20.6 SW 20.6 1.5 0.2
04:58 16.2 16.1 99 1011.7 19.0 S 20.6 1.5 0.2
04:59 16.2 16.1 99 1011.6 19.7 S 20.6 1.5 0.2
05:00 16.2 16.1 99 1011.6 19.0 S 20.6 0.8 0.2
05:01 16.2 16.1 99 1011.5 20.6 S 20.6 0.0 0.2
05:02 16.2 16.1 99 1011.5 14.5 S 20.6 0.0 0.2
05:04 16.2 16.1 99 1011.7 18.3 S 20.6 0.0 0.2
05:05 16.2 16.1 99 1011.6 15.9 SE 20.6 0.0 0.2
05:06 16.2 16.1 99 1011.5 18.3 SE 20.6 0.0 0.2
05:07 16.2 16.1 99 1011.5 14.5 S 20.6 0.0 0.2
05:08 16.3 16.2 99 1011.6 19.7 S 20.6 0.0 0.2
05:09 16.3 16.2 99 1011.6 16.8 S 20.6 0.0 0.2
05:10 16.3 16.2 99 1011.4 16.8 S 20.6 0.0 0.2
05:11 16.2 16.1 99 1011.5 17.4 S 20.6 0.0 0.3
05:12 16.3 16.2 99 1011.6 17.4 S 19.7 0.8 0.3
05:13 16.3 16.2 99 1011.6 19.0 SE 19.7 0.8 0.3
05:14 16.3 16.2 99 1011.4 13.0 S 19.7 0.8 0.3
05:15 16.3 16.2 99 1011.4 15.2 S 19.7 0.8 0.3
05:16 16.2 16.1 99 1011.4 15.2 SSW 19.7 0.8 0.3
05:17 16.3 16.2 99 1011.5 15.9 S 19.7 0.0 0.3
05:18 16.3 16.2 99 1011.6 15.9 SE 19.7 0.0 0.3
05:19 16.2 16.1 99 1011.6 17.4 S 19.0 0.0 0.3
05:20 16.3 16.2 99 1011.5 19.0 S 19.0 0.0 0.3
05:21 16.3 16.2 99 1011.5 15.2 SE 19.7 0.0 0.3
05:23 16.2 16.1 99 1011.4 19.0 S 19.7 0.0 0.3
05:24 16.3 16.2 99 1011.5 18.3 SW 25.1 0.0 0.3
05:25 16.3 16.2 99 1011.5 19.7 S 25.1 0.0 0.3
05:26 16.3 16.2 99 1011.4 19.7 S 25.1 0.0 0.3
05:27 16.3 16.2 99 1011.5 20.6 S 25.1 0.0 0.3
05:28 16.3 16.2 99 1011.5 15.2 SE 25.1 0.0 0.3
05:29 16.3 16.2 99 1011.4 17.4 SE 25.1 0.0 0.3
05:30 16.3 16.2 99 1011.2 17.4 S 25.1 0.0 0.3
05:31 16.3 16.2 99 1011.3 15.2 S 25.1 0.0 0.3
05:32 16.3 16.2 99 1011.4 19.7 S 25.1 0.0 0.3
05:33 16.3 16.2 99 1011.5 17.4 S 25.1 0.0 0.3
05:34 16.3 16.2 99 1011.4 18.3 NNE 25.1 0.0 0.3
05:35 16.3 16.2 99 1011.3 20.6 SE 20.6 0.0 0.3
05:36 16.3 16.2 99 1011.5 17.4 SE 20.6 0.0 0.3
05:37 16.3 16.2 99 1011.2 20.6 S 20.6 0.0 0.3
05:38 16.3 16.2 99 1011.1 19.7 S 20.6 0.0 0.3
05:39 16.3 16.2 99 1011.1 19.0 S 20.6 0.0 0.3
05:40 16.3 16.2 99 1011.2 16.8 S 20.6 0.0 0.3
05:42 16.3 16.2 99 1011.3 23.5 S 23.5 0.0 0.3
05:43 16.3 16.2 99 1011.3 18.3 S 23.5 0.0 0.3
05:44 16.3 16.2 99 1011.4 17.4 S 23.5 0.0 0.3
05:45 16.3 16.2 99 1011.4 16.8 SE 23.5 0.0 0.3
05:46 16.3 16.2 99 1011.5 21.3 S 23.5 0.0 0.3
05:47 16.3 16.2 99 1011.2 24.4 S 24.4 0.0 0.3
05:48 16.3 16.2 99 1011.3 19.0 S 24.4 0.0 0.3
05:49 16.3 16.2 99 1011.3 21.3 S 24.4 0.0 0.3
05:50 16.3 16.2 99 1011.3 22.1 S 24.4 0.0 0.3
05:51 16.3 16.2 99 1011.5 18.3 SW 24.4 0.0 0.3
05:52 16.3 16.2 99 1011.3 22.8 S 24.4 0.0 0.3
05:53 16.3 16.2 99 1011.3 19.0 S 24.4 0.0 0.3
05:54 16.3 16.2 99 1011.1 19.0 SW 24.4 0.0 0.3
05:55 16.3 16.2 99 1011.3 22.8 SW 24.4 0.0 0.3
05:56 16.3 16.2 99 1011.4 19.0 S 24.4 0.0 0.3
05:57 16.3 16.2 99 1011.3 22.1 S 22.8 0.0 0.3
05:58 16.3 16.2 99 1011.3 13.6 SE 22.8 0.0 0.3
05:59 16.3 16.2 99 1011.3 13.6 SE 22.8 0.0 0.3
06:00 16.3 16.2 99 1011.1 22.1 SW 22.8 0.0 0.3
06:02 16.3 16.2 99 1011.1 19.0 SW 22.8 0.0 0.3
06:03 16.3 16.2 99 1011.2 22.8 S 22.8 0.0 0.3
06:04 16.3 16.2 99 1011.2 22.1 S 22.8 0.0 0.3
06:05 16.3 16.2 99 1011.3 19.7 SE 22.8 0.0 0.3
06:06 16.3 16.2 99 1010.9 14.5 S 22.8 0.0 0.3
06:07 16.3 16.2 99 1011.2 20.6 SW 22.8 0.0 0.3
06:08 16.3 16.2 99 1011.3 17.4 S 22.8 0.0 0.3
06:09 16.3 16.2 99 1011.2 17.4 S 22.8 0.0 0.3
06:10 16.3 16.2 99 1011.1 17.4 S 22.8 0.0 0.3
06:11 16.3 16.2 99 1011.2 19.7 SE 22.8 0.0 0.3
06:12 16.3 16.2 99 1011.2 16.8 S 22.8 0.0 0.3
06:13 16.3 16.2 99 1011.1 19.7 S 22.1 0.0 0.3
06:14 16.3 16.2 99 1011.3 18.3 S 22.1 0.0 0.3
06:15 16.3 16.2 99 1011.3 21.3 S 21.3 0.0 0.3
06:16 16.3 16.2 99 1011.1 22.8 S 22.8 0.0 0.3
06:17 16.3 16.2 99 1011.2 18.3 S 22.8 0.0 0.3
06:18 16.3 16.2 99 1011.1 22.8 SW 22.8 0.0 0.3
06:20 16.3 16.2 99 1011.2 25.1 S 25.1 0.0 0.3
06:21 16.3 16.2 99 1011.2 22.1 SE 25.1 0.0 0.3
06:22 16.3 16.2 99 1010.9 22.8 S 25.1 0.0 0.3
06:23 16.3 16.2 99 1011.2 19.7 S 25.1 0.0 0.3
06:24 16.3 16.2 99 1011.1 22.1 SSE 25.1 0.0 0.3
06:25 16.3 16.2 99 1011.0 19.7 S 25.1 0.0 0.3
06:26 16.3 16.2 99 1011.3 17.4 S 25.1 0.0 0.3
06:27 16.3 16.2 99 1011.0 24.4 S 25.1 0.0 0.3
06:28 16.3 16.2 99 1011.1 22.8 S 25.1 0.0 0.3
06:29 16.6 16.5 99 1011.1 18.3 S 25.1 0.0 0.3
06:30 16.3 16.2 99 1010.9 18.3 SW 25.1 0.0 0.3
06:31 16.3 16.2 99 1010.9 19.7 SW 24.4 0.0 0.3
06:32 16.3 16.2 99 1011.0 16.8 SE 24.4 0.0 0.3
06:33 16.3 16.2 99 1010.9 19.7 S 24.4 0.0 0.3
06:34 16.3 16.2 99 1011.0 20.6 SE 24.4 0.0 0.3
06:35 16.3 16.2 99 1011.2 20.6 S 24.4 0.0 0.3
06:37 16.3 16.2 99 1011.2 19.7 S 22.8 0.0 0.3
06:38 16.3 16.2 99 1011.0 20.6 S 22.8 0.0 0.3
06:39 16.3 16.2 99 1011.1 21.3 SW 22.1 0.0 0.3
06:40 16.3 16.2 99 1011.1 19.0 SW 22.1 0.0 0.3
06:41 16.3 16.2 99 1011.1 23.5 S 23.5 0.0 0.3
06:42 16.3 16.2 99 1011.2 19.0 S 23.5 0.0 0.3
06:43 16.3 16.2 99 1011.1 22.1 S 25.9 0.0 0.3
06:44 16.3 16.2 99 1011.1 22.1 S 25.9 0.0 0.3
06:45 16.3 16.2 99 1011.2 15.9 S 25.9 0.0 0.3
06:46 16.3 16.2 99 1011.1 15.9 S 25.9 0.0 0.3
06:47 16.3 16.2 99 1011.0 25.9 SE 25.9 0.0 0.3
06:48 16.3 16.2 99 1011.0 22.8 S 25.9 0.0 0.3
06:49 16.3 16.2 99 1011.2 16.8 S 25.9 0.0 0.3
06:50 16.3 16.2 99 1011.1 22.8 SE 25.9 0.0 0.3
06:52 16.3 16.2 99 1011.0 19.7 S 25.9 0.0 0.3
06:53 16.3 16.2 99 1011.0 21.3 S 25.9 0.0 0.3
06:54 16.3 16.2 99 1011.0 19.7 SW 25.9 0.0 0.3
06:55 16.3 16.2 99 1011.0 18.3 SW 25.9 0.0 0.3
06:56 16.3 16.2 99 1011.2 22.8 S 25.9 0.0 0.3
06:57 16.3 16.2 99 1011.1 15.9 SE 25.9 0.0 0.3
06:58 16.3 16.2 99 1010.9 21.3 SSW 22.8 0.0 0.3
06:59 16.3 16.2 99 1011.0 15.9 S 22.8 0.0 0.3
07:00 16.3 16.2 99 1011.0 19.7 SW 22.8 0.0 0.3
07:01 16.3 16.2 99 1011.0 19.0 S 22.8 0.0 0.3
07:02 16.3 16.2 99 1011.0 21.3 S 22.8 0.0 0.3
07:03 16.3 16.2 99 1010.9 22.1 S 22.8 0.0 0.3
07:04 16.3 16.2 99 1010.8 15.2 S 22.8 0.0 0.3
07:05 16.3 16.2 99 1010.8 19.7 S 22.8 0.0 0.3
07:06 16.3 16.2 99 1010.9 20.6 S 22.1 0.0 0.3
07:07 16.3 16.2 99 1010.9 20.6 S 22.1 0.0 0.3
07:09 16.3 16.2 99 1011.0 18.3 S 22.1 0.0 0.3
07:10 16.3 16.2 99 1010.9 13.0 S 22.1 0.0 0.3
07:11 16.3 16.2 99 1010.9 13.0 S 22.1 0.0 0.3
07:12 16.3 16.2 99 1011.2 20.6 S 22.1 0.0 0.3
07:13 16.3 16.2 99 1011.0 16.8 S 22.1 0.0 0.3
07:14 16.3 16.2 99 1011.0 20.6 S 22.1 0.0 0.3
07:15 16.3 16.2 99 1011.1 15.2 S 22.1 0.0 0.3
07:16 16.3 16.2 99 1011.0 15.9 SW 22.1 0.0 0.3
07:17 16.3 16.2 99 1011.0 16.8 SE 22.1 0.0 0.3
07:18 16.3 16.2 99 1011.1 19.0 SE 20.6 0.0 0.3
07:19 16.3 16.2 99 1011.0 20.6 SE 20.6 0.0 0.3
07:20 16.3 16.2 99 1011.0 17.4 S 20.6 0.0 0.3
07:21 16.3 16.2 99 1011.0 17.4 SSW 20.6 0.0 0.3
07:23 16.3 16.2 99 1010.9 17.4 SW 20.6 0.0 0.3
07:24 16.3 16.2 99 1011.0 19.7 S 20.6 0.0 0.3
07:25 16.3 16.2 99 1010.9 17.4 S 20.6 0.0 0.3
07:26 16.3 16.2 99 1011.0 15.2 S 20.6 0.0 0.3
07:27 16.3 16.2 99 1011.0 19.0 SW 20.6 0.0 0.3
07:28 16.3 16.2 99 1011.0 15.9 S 20.6 0.0 0.3
07:29 16.3 16.2 99 1011.0 18.3 S 20.6 0.0 0.3
07:30 16.3 16.2 99 1011.0 25.1 SE 25.1 0.0 0.3
07:31 16.3 16.2 99 1010.8 24.4 S 25.1 0.0 0.3
07:32 16.3 16.2 99 1010.9 20.6 S 25.1 0.0 0.3
07:33 16.3 16.2 99 1010.9 22.8 S 25.1 0.0 0.3
07:34 16.3 16.2 99 1010.9 20.6 S 25.1 0.0 0.3
07:35 16.3 16.2 99 1010.9 20.6 S 25.1 0.0 0.3
07:36 16.3 16.2 99 1010.9 15.9 SW 25.1 0.0 0.3
07:38 16.3 16.2 99 1011.0 19.0 S 25.1 0.0 0.3
07:39 16.3 16.2 99 1010.9 15.9 S 25.1 0.8 0.3
07:40 16.3 16.2 99 1011.0 15.2 S 25.1 0.8 0.3
07:41 16.3 16.2 99 1010.8 21.3 S 24.4 0.8 0.3
07:42 16.3 16.2 99 1011.0 19.7 S 22.8 0.8 0.3
07:43 16.3 16.2 99 1010.9 14.5 S 21.3 0.8 0.3
07:44 16.3 16.2 99 1010.9 22.1 SW 22.1 0.0 0.3
07:45 16.3 16.2 99 1011.1 19.0 S 22.1 0.0 0.3
07:46 16.3 16.2 99 1010.8 19.0 S 24.4 0.0 0.3
07:47 16.5 16.4 99 1010.9 19.0 SE 24.4 0.0 0.3
07:48 16.3 16.2 99 1010.9 19.0 S 24.4 0.0 0.3
07:49 16.3 16.2 99 1010.9 22.8 SW 24.4 0.8 0.4
07:50 16.3 16.2 99 1010.7 21.3 SW 24.4 0.8 0.4
07:52 16.3 16.2 99 1011.0 22.8 E 24.4 1.5 0.4
07:53 16.3 16.2 99 1010.9 16.8 S 24.4 1.5 0.4
07:54 16.3 16.2 99 1011.0 21.3 S 24.4 0.8 0.4
07:55 16.3 16.2 99 1010.8 18.3 S 24.4 0.8 0.4
07:56 16.3 16.2 99 1010.7 15.9 SE 24.4 1.5 0.6
07:57 16.3 16.2 99 1010.8 15.9 SW 22.8 1.5 0.6
07:58 16.3 16.2 99 1010.8 25.1 S 25.1 1.5 0.6
07:59 16.3 16.2 99 1010.9 25.1 SW 25.1 2.3 0.7
08:00 16.3 16.2 99 1010.8 19.0 S 25.1 3.0 0.7
08:01 16.3 16.2 99 1010.8 19.7 S 25.1 3.0 0.8
08:02 16.3 16.2 99 1010.9 20.6 S 25.1 3.0 0.8
08:03 16.3 16.2 99 1010.8 15.2 SE 25.1 3.0 0.8
08:04 16.3 16.2 99 1010.9 15.2 SE 25.1 2.3 0.8
08:06 16.3 16.2 99 1010.8 16.8 S 25.1 0.8 0.8
08:07 16.3 16.2 99 1010.7 16.8 SW 25.1 0.0 0.8
08:08 16.3 16.2 99 1010.7 15.9 E 25.1 0.0 0.8
08:09 16.3 16.2 99 1010.7 15.9 WSW 25.1 0.0 0.8
08:10 16.3 16.2 99 1010.8 19.7 S 22.1 0.0 0.8
08:11 16.3 16.2 99 1010.8 17.4 S 22.1 0.0 0.8
08:12 16.3 16.2 99 1010.8 14.5 S 22.1 0.0 0.9
08:13 16.3 16.2 99 1010.8 15.9 SE 22.1 0.8 0.9
08:14 16.3 16.2 99 1010.7 15.2 S 22.1 0.8 0.9
08:15 16.3 16.2 99 1010.7 14.5 S 22.1 0.8 0.9
08:16 16.3 16.2 99 1010.7 20.6 S 22.1 0.8 0.9
08:17 16.3 16.2 99 1010.6 23.5 WSW 23.5 0.8 0.9
08:18 16.3 16.2 99 1010.6 23.5 WSW 23.5 0.0 0.9
08:20 16.3 16.2 99 1010.8 19.7 S 23.5 0.0 0.9
08:21 16.3 16.2 99 1010.7 15.2 S 23.5 0.0 0.9
08:22 16.3 16.2 99 1010.8 23.5 SE 23.5 0.0 0.9
08:23 16.3 16.2 99 1010.7 16.8 SE 23.5 0.0 0.9
08:24 16.3 16.2 99 1010.8 22.1 S 23.5 0.0 0.9
08:25 16.3 16.2 99 1010.6 19.0 S 23.5 0.0 0.9
08:26 16.3 16.2 99 1010.8 21.3 SW 23.5 0.0 0.9
08:27 16.3 16.2 99 1010.7 16.8 S 23.5 0.0 0.9
08:28 16.3 16.2 99 1010.8 19.7 S 23.5 0.0 0.9
08:29 16.3 16.2 99 1010.8 20.6 S 23.5 0.0 0.9
08:30 16.3 16.2 99 1010.7 20.6 S 23.5 0.0 0.9
08:31 16.3 16.2 99 1010.8 22.8 S 23.5 0.0 0.9
08:32 16.3 16.2 99 1010.7 21.3 S 22.8 0.0 0.9
08:33 16.3 16.2 99 1010.8 19.7 S 22.8 0.0 0.9
08:35 16.3 16.2 99 1010.7 17.4 S 22.8 0.0 0.9
08:36 16.3 16.2 99 1010.7 21.3 SE 22.8 0.0 0.9
08:37 16.3 16.2 99 1010.7 22.1 SE 22.8 0.0 0.9
08:38 16.3 16.2 99 1010.9 21.3 S 22.8 0.0 0.9
08:39 16.3 16.2 99 1010.7 13.6 SE 22.8 0.0 0.9
08:40 16.3 16.2 99 1010.7 22.8 SE 22.8 0.0 0.9
08:41 16.3 16.2 99 1010.7 20.6 S 22.8 0.0 0.9
08:42 16.3 16.2 99 1010.6 20.6 S 22.8 0.0 0.9
08:43 16.3 16.2 99 1010.7 18.3 SE 22.8 0.0 0.9
08:44 16.3 16.2 99 1010.7 22.1 S 22.8 0.0 0.9
08:45 16.3 16.2 99 1010.6 19.0 SSW 22.8 0.0 0.9
08:46 16.3 16.2 99 1010.5 22.8 SE 22.8 0.0 0.9
08:47 16.3 16.2 99 1010.7 19.0 S 22.8 0.0 0.9
08:49 16.3 16.2 99 1010.5 17.4 S 22.8 0.0 0.9
08:50 16.3 16.2 99 1010.7 18.3 S 22.8 0.0 0.9
08:51 16.3 16.2 99 1010.5 20.6 S 22.8 0.0 0.9
08:52 16.3 16.2 99 1010.6 20.6 SE 22.8 0.0 0.9
08:53 16.3 16.2 99 1010.4 19.0 S 22.8 0.0 0.9
08:54 16.3 16.2 99 1010.3 13.6 S 22.8 0.0 0.9
08:55 16.3 16.2 99 1010.3 17.4 S 22.8 0.0 0.9
08:56 16.3 16.2 99 1010.4 15.9 SE 22.1 0.0 0.9
08:57 16.3 16.2 99 1010.5 20.6 S 22.1 0.0 0.9
08:58 16.3 16.2 99 1010.4 17.4 S 22.1 0.0 0.9
08:59 16.3 16.2 99 1010.5 18.3 WSW 20.6 0.0 0.9
09:00 16.3 16.2 99 1010.4 19.7 S 20.6 0.0 0.9
09:01 16.3 16.2 99 1010.5 17.4 S 20.6 0.0 0.9
09:02 16.4 16.3 99 1010.6 19.0 S 20.6 0.0 0.9
09:03 16.3 16.2 99 1010.5 18.3 SSE 20.6 0.0 0.9
09:04 16.4 16.3 99 1010.5 19.7 SW 20.6 0.0 0.9
09:05 16.4 16.3 99 1010.5 21.3 SW 21.3 0.0 0.9
09:06 16.4 16.3 99 1010.5 15.2 S 21.3 0.0 0.9
09:08 16.4 16.3 99 1010.5 19.0 SW 21.3 0.0 0.9
09:09 16.4 16.3 99 1010.4 19.0 S 21.3 0.0 0.9
09:10 16.4 16.3 99 1010.4 16.8 S 21.3 0.0 0.9
09:11 16.4 16.3 99 1010.5 16.8 S 21.3 0.0 0.9
09:12 16.4 16.3 99 1010.4 20.6 S 21.3 0.0 0.9
09:13 16.4 16.3 99 1010.5 24.4 S 24.4 0.0 0.9
09:14 16.4 16.3 99 1010.4 21.3 SE 24.4 0.0 0.9
09:15 16.4 16.3 99 1010.5 18.3 S 24.4 0.0 0.9
09:16 16.4 16.3 99 1010.4 19.0 SE 24.4 0.0 0.9
09:17 16.3 16.2 99 1010.3 19.0 S 24.4 0.0 0.9
09:18 16.4 16.3 99 1010.4 22.1 S 24.4 0.0 0.9
09:19 16.4 16.3 99 1010.4 22.1 S 24.4 0.0 0.9
09:20 16.4 16.3 99 1010.4 17.4 SW 24.4 0.0 0.9
09:22 16.4 16.3 99 1010.2 16.8 S 24.4 0.0 0.9
09:23 16.4 16.3 99 1010.3 16.8 SE 24.4 0.0 0.9
09:24 16.4 16.3 99 1010.3 20.6 S 22.1 0.0 0.9
09:25 16.4 16.3 99 1010.3 17.4 SE 22.1 0.0 0.9
09:26 16.4 16.3 99 1010.3 13.0 S 22.1 0.0 0.9
09:27 16.4 16.3 99 1010.2 22.1 S 22.1 0.0 0.9
09:28 16.4 16.3 99 1010.2 15.9 SW 22.1 0.0 0.9
09:29 16.4 16.3 99 1010.2 15.9 S 22.1 0.0 0.9
09:30 16.4 16.3 99 1010.3 20.6 SE 22.1 0.0 0.9
09:31 16.4 16.3 99 1010.3 23.5 SE 23.5 0.0 0.9
09:32 16.4 16.3 99 1010.2 21.3 S 23.5 0.0 0.9
09:33 16.5 16.4 99 1010.2 16.8 SE 23.5 0.0 0.9
09:34 16.4 16.3 99 1010.2 18.3 SSW 23.5 0.0 0.9
09:36 16.5 16.4 99 1010.3 22.1 SW 23.5 0.0 0.9
09:37 16.5 16.4 99 1010.2 19.7 S 23.5 0.0 0.9
09:38 16.5 16.4 99 1010.2 17.4 S 23.5 0.0 0.9
09:39 16.5 16.4 99 1010.2 15.2 S 23.5 0.0 0.9
09:40 16.5 16.4 99 1010.3 17.4 SE 23.5 0.0 0.9
09:41 16.5 16.4 99 1010.3 14.5 S 23.5 0.0 0.9
09:42 16.5 16.4 99 1010.3 19.0 SE 22.1 0.0 0.9
09:43 16.5 16.4 99 1010.1 17.4 S 22.1 0.0 0.9
09:44 16.5 16.4 99 1010.3 20.6 SE 22.1 0.0 0.9
09:45 16.5 16.4 99 1010.2 20.6 S 22.1 0.0 0.9
09:46 16.5 16.4 99 1010.1 15.9 S 22.1 0.0 0.9
09:47 16.5 16.4 99 1010.1 21.3 S 21.3 0.0 0.9
09:48 16.5 16.4 99 1010.0 14.5 S 21.3 0.0 0.9
09:50 16.5 16.4 99 1010.2 22.8 S 22.8 0.0 0.9
09:51 16.5 16.4 99 1010.2 19.7 S 22.8 0.0 0.9
09:52 16.5 16.4 99 1010.3 15.9 SSE 22.8 0.0 0.9
09:53 16.5 16.4 99 1010.1 19.7 S 22.8 0.0 0.9
09:54 16.5 16.4 99 1010.2 13.6 S 22.8 0.0 0.9
09:55 16.5 16.4 99 1010.1 24.4 SE 24.4 0.0 0.9
09:56 16.5 16.4 99 1010.2 14.5 S 24.4 0.0 0.9
09:57 16.5 16.4 99 1010.0 25.9 SW 25.9 0.0 0.9
09:58 16.5 16.4 99 1010.1 14.5 SE 25.9 0.0 0.9
09:59 16.5 16.4 99 1009.9 15.2 SW 25.9 0.0 0.9
10:00 16.5 16.4 99 1010.1 17.4 S 25.9 0.0 0.9
10:01 16.5 16.4 99 1010.1 15.9 S 25.9 0.0 0.9
10:02 16.5 16.4 99 1010.0 18.3 SW 25.9 0.0 0.9
10:03 16.5 16.4 99 1010.1 20.6 S 25.9 0.0 0.9
10:05 16.5 16.4 99 1009.8 22.8 S 25.9 0.0 0.9
10:06 16.5 16.4 99 1009.9 20.6 S 25.9 0.0 0.9
10:07 16.5 16.4 99 1009.9 21.3 S 25.9 0.0 0.9
10:08 16.5 16.4 99 1009.9 23.5 S 23.5 0.0 0.9
10:09 16.5 16.4 99 1009.9 19.0 S 23.5 0.0 0.9
10:10 16.5 16.4 99 1009.8 22.8 S 23.5 0.0 0.9
10:11 16.6 16.5 99 1009.7 15.9 S 23.5 0.0 0.9
10:12 16.5 16.4 99 1009.7 15.9 SSW 23.5 0.0 0.9
10:13 16.5 16.4 99 1009.8 15.2 WSW 23.5 0.0 0.9
10:14 16.5 16.4 99 1009.6 25.9 S 25.9 0.0 0.9
10:15 16.5 16.4 99 1009.6 25.9 S 25.9 0.0 0.9
10:16 16.5 16.4 99 1009.7 25.9 S 25.9 0.0 0.9
10:17 16.5 16.4 99 1009.7 25.9 S 25.9 0.0 0.9
10:19 16.5 16.4 99 1009.7 25.9 S 25.9 0.0 0.9
10:20 16.5 16.4 99 1009.8 25.9 S 25.9 0.0 0.9
10:21 16.5 16.4 99 1009.7 25.9 S 25.9 0.0 0.9
10:22 16.5 16.4 99 1009.7 25.9 S 25.9 0.0 0.9
10:23 16.5 16.4 99 1009.7 22.1 SE 25.9 0.0 0.9
10:24 16.6 16.5 99 1009.7 21.3 SE 25.9 0.0 0.9
10:25 16.5 16.4 99 1009.6 20.6 SW 25.9 0.8 0.9
10:26 16.5 16.4 99 1009.7 13.6 SW 25.9 0.8 0.9
10:27 16.5 16.4 99 1009.7 19.7 S 25.9 0.8 0.9
10:28 16.5 16.4 99 1009.6 15.9 S 25.9 0.8 0.9
10:29 16.5 16.4 99 1009.6 16.8 S 25.9 0.8 0.9
10:30 16.5 16.4 99 1009.6 16.8 SW 25.9 0.0 0.9
10:31 16.5 16.4 99 1009.8 19.7 SW 25.9 0.0 0.9
10:33 16.5 16.4 99 1009.9 25.1 SSW 25.1 0.0 0.9
10:34 16.5 16.4 99 1009.6 22.1 SE 25.1 0.0 0.9
10:35 16.5 16.4 99 1009.8 22.1 SSE 25.1 0.0 0.9
10:36 16.5 16.4 99 1009.7 18.3 S 25.1 0.0 0.9
10:37 16.5 16.4 99 1009.8 18.3 S 25.1 0.0 0.9
10:38 16.5 16.4 99 1009.8 19.0 SW 25.1 0.0 0.9
10:39 16.5 16.4 99 1009.8 20.6 SE 25.1 0.0 0.9
10:40 16.5 16.4 99 1009.6 22.1 S 25.1 0.0 0.9
10:41 16.5 16.4 99 1009.8 21.3 SE 25.1 0.0 0.9
10:42 16.5 16.4 99 1009.8 23.5 S 25.1 0.0 0.9
10:43 16.5 16.4 99 1009.8 23.5 SE 23.5 0.0 0.9
10:44 16.5 16.4 99 1009.6 26.6 SW 26.6 0.0 0.9
10:45 16.5 16.4 99 1009.6 29.8 S 29.8 0.0 0.9
10:46 16.5 16.4 99 1009.7 19.7 S 29.8 0.0 0.9
10:48 16.5 16.4 99 1009.7 23.5 S 29.8 0.0 0.9
10:49 16.5 16.4 99 1009.7 26.6 SW 29.8 0.0 0.9
10:50 16.5 16.4 99 1009.5 20.6 SE 29.8 0.0 0.9
10:51 16.5 16.4 99 1009.5 27.3 S 29.8 0.0 0.9
10:52 16.5 16.4 99 1009.5 20.6 S 29.8 0.0 0.9
10:53 16.5 16.4 99 1009.4 20.6 S 29.8 0.0 0.9
10:54 16.5 16.4 99 1009.4 20.6 S 29.8 0.0 0.9
10:55 16.5 16.4 99 1009.4 23.5 SE 27.3 0.0 0.9
10:56 16.5 16.4 99 1009.5 17.4 S 27.3 0.0 0.9
10:57 16.5 16.4 99 1009.4 21.3 SE 27.3 0.0 0.9
10:58 16.6 16.5 99 1009.4 19.0 SE 27.3 0.0 0.9
10:59 16.6 16.5 99 1009.4 19.0 SE 27.3 0.0 0.9
11:00 16.5 16.4 99 1009.5 22.1 S 27.3 0.0 0.9
11:01 16.6 16.5 99 1009.4 18.3 S 24.4 0.0 0.9
11:02 16.6 16.5 99 1009.4 19.0 ESE 23.5 0.0 0.9
11:04 16.5 16.4 99 1009.5 22.1 S 23.5 0.0 0.9
11:05 16.6 16.5 99 1009.4 22.8 S 23.5 0.0 0.9
11:06 16.6 16.5 99 1009.3 24.4 SE 24.4 0.0 0.9
11:08 16.6 16.5 99 1009.5 22.1 S 24.4 0.0 0.9
11:09 16.6 16.5 99 1009.5 19.0 S 24.4 0.0 0.9
11:10 16.6 16.5 99 1009.5 24.4 S 24.4 0.0 0.9
11:11 16.6 16.5 99 1009.6 24.4 S 24.4 0.0 0.9
11:12 16.6 16.5 99 1009.5 19.7 NE 24.4 0.0 1.0
11:13 16.6 16.5 99 1009.4 22.1 S 24.4 1.5 1.1
11:14 16.6 16.5 99 1009.4 20.6 S 25.1 1.5 1.2
11:15 16.6 16.5 99 1009.4 24.4 S 25.1 3.0 1.2
11:16 16.6 16.5 99 1009.3 22.8 SE 25.1 3.0 1.2
11:17 16.6 16.5 99 1009.4 18.3 SE 25.1 3.0 1.3
11:18 16.6 16.5 99 1009.5 24.4 S 25.1 2.3 1.3
11:19 16.6 16.5 99 1009.4 27.3 SE 27.3 2.3 1.3
11:20 16.6 16.5 99 1009.4 17.4 SE 27.3 0.8 1.3
11:21 16.6 16.5 99 1009.6 19.7 E 27.3 0.8 1.3
11:22 16.6 16.5 99 1009.4 21.3 S 27.3 0.8 1.3
11:24 16.6 16.5 99 1009.4 22.1 S 27.3 0.0 1.3
11:25 16.6 16.5 99 1009.4 22.8 SE 27.3 0.0 1.3
11:26 16.6 16.5 99 1009.4 22.8 SW 27.3 0.0 1.3
11:27 16.6 16.5 99 1009.5 13.6 SE 27.3 0.0 1.3
11:28 16.6 16.5 99 1009.4 19.7 SW 27.3 0.0 1.3
11:29 16.6 16.5 99 1009.4 23.5 SW 27.3 0.0 1.3
11:30 16.6 16.5 99 1009.4 27.3 SE 27.3 0.0 1.3
11:31 16.6 16.5 99 1009.4 22.1 S 27.3 0.0 1.3
11:32 16.6 16.5 99 1009.2 21.3 S 27.3 0.0 1.3
11:33 16.6 16.5 99 1009.3 15.9 S 27.3 0.0 1.3
11:34 16.6 16.5 99 1009.3 19.0 SE 27.3 0.0 1.3
11:35 16.6 16.5 99 1009.3 19.0 SE 27.3 0.0 1.3
11:36 16.6 16.5 99 1009.2 19.7 SE 27.3 0.0 1.3
11:37 16.7 16.6 99 1009.3 24.4 S 27.3 0.0 1.3
11:39 16.7 16.6 99 1009.3 28.9 S 28.9 0.0 1.3
11:40 16.7 16.6 99 1009.3 24.4 SE 28.9 0.0 1.3
11:41 16.7 16.6 99 1009.2 19.7 SW 28.9 0.0 1.3
11:42 16.7 16.6 99 1009.3 18.3 S 28.9 0.0 1.3
11:43 16.7 16.6 99 1009.2 20.6 S 28.9 0.0 1.3
11:44 16.7 16.6 99 1009.2 22.1 SE 28.9 0.0 1.3
11:45 16.7 16.6 99 1009.2 25.9 S 28.9 0.0 1.3
11:46 16.7 16.6 99 1009.2 19.0 SW 28.9 0.0 1.3
11:47 16.7 16.6 99 1009.3 22.8 S 28.9 0.0 1.3
11:48 16.7 16.6 99 1009.2 25.1 S 28.9 0.0 1.3
11:49 16.7 16.6 99 1009.1 20.6 S 28.2 0.0 1.3
11:50 16.7 16.6 99 1009.3 22.8 S 25.9 0.0 1.3
11:51 16.7 16.6 99 1009.4 24.4 SE 25.9 0.0 1.3
11:53 16.7 16.6 99 1009.3 22.8 SW 25.9 0.0 1.3
11:54 16.7 16.6 99 1009.2 17.4 NE 25.9 0.0 1.3
11:55 16.7 16.6 99 1009.3 25.1 S 25.9 0.0 1.3
11:56 16.7 16.6 99 1009.3 28.2 SE 28.2 0.0 1.3
11:57 16.7 16.6 99 1009.1 26.6 SW 28.2 0.0 1.3
11:58 16.7 16.6 99 1009.3 22.1 SW 28.2 0.0 1.3
11:59 16.7 16.6 99 1009.3 24.4 SW 28.2 0.0 1.3
12:00 16.7 16.6 99 1009.2 22.1 S 28.2 0.0 1.3
12:01 16.7 16.6 99 1009.3 23.5 SE 28.2 0.0 1.3
12:02 16.7 16.6 99 1009.1 22.1 S 28.2 0.0 1.3
12:03 16.7 16.6 99 1009.2 28.2 SE 28.2 0.0 1.3
12:04 16.7 16.6 99 1009.0 25.9 SE 28.2 0.0 1.3
12:05 16.7 16.6 99 1009.1 22.8 SE 28.2 0.0 1.3
12:06 16.7 16.6 99 1009.0 20.6 SE 28.2 0.0 1.3
12:08 16.7 16.6 99 1008.9 19.7 S 28.2 0.0 1.3
12:09 16.7 16.6 99 1009.0 23.5 S 28.2 0.0 1.3
12:10 16.7 16.6 99 1009.0 26.6 S 28.2 0.0 1.3
12:11 16.8 16.7 99 1009.0 19.0 S 28.2 0.0 1.3
12:12 16.8 16.7 99 1009.0 23.5 S 28.2 0.0 1.3
12:13 16.8 16.7 99 1008.9 25.1 SSE 28.2 0.0 1.3
12:14 16.8 16.7 99 1008.9 24.4 S 26.6 0.0 1.3
12:15 16.8 16.7 99 1008.9 28.2 SW 28.2 0.0 1.3
12:16 16.8 16.7 99 1008.8 28.2 S 28.2 0.0 1.3
12:17 16.9 16.8 99 1008.9 19.7 SE 28.2 0.0 1.3
12:18 16.9 16.8 99 1008.9 19.7 SE 28.2 0.0 1.3
12:19 16.8 16.7 99 1008.9 21.3 ESE 28.2 0.0 1.3
12:20 16.8 16.7 99 1008.8 21.3 NW 28.2 0.0 1.3
12:22 16.8 16.7 99 1008.8 22.1 SE 28.2 0.0 1.3
12:23 16.8 16.7 99 1008.9 24.4 S 28.2 0.0 1.3
12:24 16.8 16.7 99 1008.9 21.3 S 28.2 0.0 1.3
12:25 16.8 16.7 99 1009.1 20.6 SE 28.2 0.0 1.3
12:26 16.8 16.7 99 1008.9 16.8 SE 24.4 0.0 1.3
12:27 16.8 16.7 99 1008.8 25.1 S 25.1 0.0 1.3
12:28 16.8 16.7 99 1008.9 22.8 S 25.1 0.0 1.3
12:29 16.8 16.7 99 1008.8 23.5 S 32.7 0.0 1.3
12:30 16.8 16.7 99 1008.8 22.8 S 32.7 0.0 1.3
12:31 16.8 16.7 99 1008.8 18.3 SE 32.7 0.0 1.3
12:32 16.8 16.7 99 1008.8 25.1 S 32.7 0.0 1.3
12:33 16.8 16.7 99 1008.7 18.3 S 32.7 0.0 1.3
12:34 16.8 16.7 99 1008.9 24.4 SE 32.7 0.0 1.3
12:36 16.8 16.7 99 1008.7 19.0 SE 32.7 0.0 1.3
12:37 16.8 16.7 99 1008.9 25.1 S 32.7 0.0 1.3
12:38 16.8 16.7 99 1008.6 27.3 SE 32.7 0.0 1.3
12:39 16.8 16.7 99 1008.7 25.9 S 32.7 0.0 1.3
12:40 16.8 16.7 99 1008.6 20.6 S 27.3 0.0 1.3
12:41 16.8 16.7 99 1008.7 23.5 S 27.3 0.0 1.3
12:42 16.8 16.7 99 1008.7 24.4 S 27.3 0.0 1.3
12:43 16.8 16.7 99 1008.6 27.3 S 27.3 0.0 1.3
12:44 16.8 16.7 99 1008.6 22.8 SE 27.3 0.0 1.3
12:45 16.8 16.7 99 1008.5 22.8 S 27.3 0.0 1.3
12:46 16.8 16.7 99 1008.7 22.8 S 27.3 0.0 1.3
12:47 16.8 16.7 99 1008.3 22.8 SE 27.3 0.0 1.3
12:48 16.8 16.7 99 1008.5 23.5 S 27.3 0.0 1.3
12:50 16.7 16.6 99 1008.6 22.8 S 27.3 0.0 1.3
12:51 16.9 16.8 99 1008.3 21.3 S 30.4 0.0 1.3
12:52 16.8 16.7 99 1008.5 19.7 SSW 30.4 0.0 1.3
12:53 16.9 16.8 99 1008.6 22.8 SE 30.4 0.0 1.3
12:54 16.9 16.8 99 1008.4 18.3 S 30.4 0.0 1.3
12:55 16.9 16.8 99 1008.3 23.5 S 30.4 0.0 1.3
12:56 16.9 16.8 99 1008.3 25.1 S 30.4 0.0 1.3
12:57 16.9 16.8 99 1008.3 28.2 S 30.4 0.0 1.3
12:58 16.9 16.8 99 1008.4 25.1 S 30.4 0.0 1.3
12:59 16.9 16.8 99 1008.3 22.8 S 30.4 0.0 1.3
13:00 16.8 16.7 99 1008.3 22.8 S 30.4 0.0 1.3
13:01 16.9 16.8 99 1008.3 20.6 SE 28.2 0.0 1.3
13:02 16.9 16.8 99 1008.4 24.4 S 28.2 0.0 1.3
13:03 16.8 16.7 99 1008.3 22.8 SW 28.2 0.0 1.3
13:04 16.9 16.8 99 1008.3 15.9 S 28.2 0.0 1.3
13:05 16.9 16.8 99 1008.4 23.5 SSW 28.2 0.0 1.3
13:06 16.9 16.8 99 1008.4 27.3 SE 28.2 0.0 1.3
13:07 16.9 16.8 99 1008.1 26.6 SE 28.2 0.0 1.3
13:08 16.9 16.8 99 1008.2 19.0 S 27.3 0.0 1.3
13:09 16.9 16.8 99 1008.3 22.8 S 27.3 0.0 1.3
13:10 16.9 16.8 99 1008.2 22.8 S 27.3 0.0 1.3
13:12 16.9 16.8 99 1008.3 22.1 SE 27.3 0.0 1.3
13:13 16.9 16.8 99 1008.2 24.4 SE 27.3 0.0 1.3
13:14 16.9 16.8 99 1008.3 23.5 N 27.3 0.0 1.3
13:15 16.9 16.8 99 1008.2 25.9 S 27.3 0.0 1.3
13:16 16.9 16.8 99 1008.1 27.3 SE 27.3 0.0 1.3
13:17 16.9 16.8 99 1008.3 24.4 SW 27.3 0.0 1.3
13:18 16.9 16.8 99 1008.3 21.3 SW 27.3 0.0 1.3
13:19 16.9 16.8 99 1008.3 25.1 S 27.3 0.0 1.3
13:20 17.0 16.9 99 1008.4 23.5 S 27.3 0.0 1.3
13:21 16.9 16.8 99 1008.2 24.4 S 27.3 0.0 1.3
13:22 16.9 16.8 99 1008.2 24.4 S 27.3 0.0 1.3
13:23 16.9 16.8 99 1008.2 25.1 S 27.3 0.0 1.3
13:24 16.9 16.8 99 1008.2 22.1 SW 27.3 0.0 1.3
13:25 17.0 16.9 99 1008.3 25.9 SW 27.3 0.0 1.3
13:27 17.0 16.9 99 1008.2 21.3 S 28.2 0.0 1.3
13:28 17.0 16.9 99 1008.1 17.4 SE 28.2 0.0 1.3
13:29 17.0 16.9 99 1008.2 23.5 S 28.2 0.0 1.3
13:30 17.0 16.9 99 1008.1 25.9 N 28.2 0.0 1.3
13:31 17.0 16.9 99 1008.3 23.5 SE 28.2 0.0 1.3
13:32 17.0 16.9 99 1008.1 31.1 S 31.1 0.0 1.3
13:33 17.0 16.9 99 1008.1 25.1 S 31.1 0.0 1.3
13:34 17.0 16.9 99 1008.1 20.6 S 31.1 0.0 1.3
13:35 17.0 16.9 99 1008.0 25.1 S 31.1 0.0 1.3
13:36 17.0 16.9 99 1008.1 23.5 SE 31.1 0.0 1.3
13:37 17.0 16.9 99 1008.0 28.2 SW 31.1 0.0 1.3
13:38 17.0 16.9 99 1008.2 25.9 S 31.1 0.0 1.3
13:39 17.0 16.9 99 1008.1 23.5 SE 31.1 0.0 1.3
13:41 17.0 16.9 99 1007.9 23.5 S 31.1 0.0 1.3
13:42 17.0 16.9 99 1008.0 25.9 S 31.1 0.0 1.3
13:43 17.0 16.9 99 1007.9 22.8 S 28.2 0.0 1.3
13:44 17.0 16.9 99 1007.8 17.4 SE 28.2 0.0 1.3
13:45 17.0 16.9 99 1008.0 21.3 S 28.2 0.0 1.3
13:46 17.1 17.0 99 1008.0 19.7 S 28.2 0.0 1.3
13:47 17.1 17.0 99 1007.9 19.0 SE 26.6 0.0 1.3
13:48 17.1 17.0 99 1007.8 25.9 S 26.6 0.0 1.3
13:49 17.1 17.0 99 1007.9 23.5 S 26.6 0.0 1.3
13:50 17.1 17.0 99 1008.0 26.6 SE 26.6 0.0 1.3
13:51 17.1 17.0 99 1007.9 25.1 S 26.6 0.0 1.3
13:52 17.1 17.0 99 1007.9 19.0 S 26.6 0.0 1.3
13:53 17.1 17.0 99 1008.0 23.5 SE 26.6 0.0 1.3
13:54 17.1 17.0 99 1008.0 25.1 S 26.6 0.0 1.3
13:55 17.2 17.1 99 1008.0 22.8 S 26.6 0.0 1.3
13:56 17.2 17.1 99 1007.9 28.9 S 28.9 0.0 1.3
13:58 17.1 17.0 99 1007.9 19.0 SE 28.9 0.0 1.3
13:59 17.2 17.1 99 1008.1 29.8 S 29.8 0.0 1.3
14:00 17.2 17.1 99 1008.0 31.1 S 31.1 0.0 1.3
14:01 17.2 17.1 99 1007.8 20.6 SW 31.1 0.0 1.3
14:02 17.2 17.1 99 1008.0 19.7 S 31.1 0.0 1.3
14:03 17.2 17.1 99 1007.9 25.1 S 31.1 0.0 1.3
14:04 17.1 17.0 99 1008.0 24.4 SW 31.1 0.0 1.3
14:05 17.1 17.0 99 1008.0 28.9 SE 31.1 0.0 1.3
14:06 17.1 17.0 99 1007.8 23.5 NNE 31.1 0.0 1.3
14:07 17.1 17.0 99 1007.9 22.1 S 31.1 0.0 1.3
14:08 17.1 17.0 99 1007.8 23.5 S 31.1 0.0 1.3
14:09 17.1 17.0 99 1008.0 23.5 S 31.1 0.0 1.3
14:10 17.1 17.0 99 1007.9 24.4 SE 31.1 0.0 1.3
14:11 17.0 16.9 99 1007.8 28.9 S 28.9 0.0 1.3
14:12 17.0 16.9 99 1007.8 28.9 SSE 28.9 0.0 1.3
14:14 17.0 16.9 99 1007.9 23.5 S 28.9 0.0 1.3
14:15 17.0 16.9 99 1007.9 25.1 S 28.9 0.0 1.3
14:16 17.0 16.9 99 1007.8 24.4 S 28.9 0.0 1.3
14:17 17.0 16.9 99 1007.8 25.9 S 28.9 0.0 1.3
14:18 17.0 16.9 99 1007.9 18.3 S 28.9 0.0 1.3
14:19 17.0 16.9 99 1007.7 22.1 SE 28.9 0.0 1.3
14:20 17.0 16.9 99 1007.8 16.8 S 28.9 0.0 1.3
14:21 17.0 16.9 99 1007.8 19.0 SE 28.9 0.0 1.3
14:22 17.0 16.9 99 1007.7 21.3 WSW 28.2 0.0 1.3
14:23 16.2 16.1 99 1007.6 14.5 SE 28.2 0.0 1.3
14:24 17.0 16.9 99 1007.7 17.4 S 28.2 0.0 1.3
14:25 17.0 16.9 99 1007.7 23.5 SE 25.9 0.0 1.3
14:26 17.0 16.9 99 1007.6 19.7 S 25.9 0.0 1.3
14:27 17.0 16.9 99 1007.7 24.4 SW 25.9 0.0 1.3
14:28 17.0 16.9 99 1007.6 19.7 S 24.4 0.0 1.3
14:30 17.0 16.9 99 1007.6 22.1 S 24.4 0.0 1.3
14:31 17.0 16.9 99 1007.5 25.9 SW 25.9 0.0 1.3
14:32 17.0 16.9 99 1007.6 23.5 S 25.9 0.0 1.3
14:33 17.0 16.9 99 1007.8 25.9 SE 27.3 0.0 1.3
14:34 17.0 16.9 99 1007.7 23.5 S 27.3 0.0 1.3
14:35 17.0 16.9 99 1007.7 22.8 SE 27.3 0.0 1.3
14:36 17.0 16.9 99 1007.5 29.8 S 29.8 0.0 1.3
14:37 17.0 16.9 99 1007.6 23.5 S 29.8 0.0 1.3
14:38 17.0 16.9 99 1007.7 24.4 SE 29.8 0.0 1.3
14:39 17.0 16.9 99 1007.5 24.4 SE 29.8 0.0 1.3
14:40 16.9 16.8 99 1007.4 25.1 S 29.8 0.0 1.3
14:41 16.9 16.8 99 1007.5 22.1 S 29.8 0.0 1.3
14:42 16.9 16.8 99 1007.4 27.3 S 29.8 0.0 1.3
14:43 16.9 16.8 99 1007.7 23.5 S 29.8 0.0 1.3
14:45 16.9 16.8 99 1007.4 21.3 S 30.4 0.0 1.3
14:46 16.9 16.8 99 1007.5 29.8 S 30.4 0.0 1.3
14:47 17.0 16.9 99 1007.7 26.6 S 30.4 0.0 1.3
14:48 16.9 16.8 99 1007.4 24.4 S 30.4 0.0 1.3
14:49 16.9 16.8 99 1007.5 28.9 SE 30.4 0.0 1.3
14:50 16.9 16.8 99 1007.4 23.5 S 30.4 0.0 1.3
14:51 16.9 16.8 99 1007.4 18.3 SW 30.4 0.0 1.3
14:52 16.9 16.8 99 1007.3 18.3 SW 30.4 0.0 1.3
14:53 16.9 16.8 99 1007.3 22.1 S 30.4 0.0 1.3
14:54 16.9 16.8 99 1007.4 22.8 S 29.8 0.0 1.3
14:55 16.9 16.8 99 1007.4 25.9 SE 29.8 0.0 1.3
14:56 16.9 16.8 99 1007.4 19.0 SSE 28.9 0.0 1.3
14:57 16.9 16.8 99 1007.3 18.3 SSE 28.9 0.0 1.3
14:58 16.9 16.8 99 1007.3 19.7 SW 28.9 0.0 1.3
14:59 16.9 16.8 99 1007.3 25.1 S 28.9 0.0 1.3
15:01 16.9 16.8 99 1007.3 25.9 S 28.2 0.0 1.3
15:02 16.9 16.8 99 1007.3 22.1 S 28.2 0.0 1.3
15:03 16.9 16.8 99 1007.3 24.4 S 28.2 0.0 1.3
15:04 16.9 16.8 99 1007.3 23.5 S 28.2 0.0 1.3
15:06 16.9 16.8 99 1007.3 15.9 S 28.2 0.0 1.3
15:07 16.9 16.8 99 1007.1 19.0 S 28.2 0.0 1.3
15:08 16.9 16.8 99 1007.0 20.6 SSW 28.2 0.0 1.3
15:09 16.9 16.8 99 1007.3 25.9 S 28.2 0.0 1.3
15:10 16.9 16.8 99 1007.1 25.9 S 26.6 0.0 1.3
15:11 16.9 16.8 99 1007.1 26.6 SE 26.6 0.0 1.3
15:12 16.9 16.8 99 1007.1 24.4 SSE 26.6 0.0 1.3
15:13 16.9 16.8 99 1006.9 22.8 S 26.6 0.0 1.3
15:14 16.9 16.8 99 1007.1 23.5 NNE 26.6 0.0 1.3
15:15 16.9 16.8 99 1007.0 24.4 S 26.6 0.0 1.3
15:16 16.9 16.8 99 1007.0 27.3 SE 27.3 0.0 1.3
15:17 16.9 16.8 99 1007.0 27.3 SE 27.3 0.0 1.3
15:18 16.9 16.8 99 1007.2 22.1 S 27.3 0.0 1.3
15:19 16.9 16.8 99 1007.2 19.0 S 27.3 0.0 1.3
15:20 16.9 16.8 99 1007.0 21.3 S 27.3 0.0 1.3
15:21 16.9 16.8 99 1007.2 24.4 S 27.3 0.0 1.3
15:23 16.9 16.8 99 1007.0 22.8 WSW 27.3 0.0 1.3
15:24 16.9 16.8 99 1006.9 21.3 SW 27.3 0.0 1.3
15:25 16.9 16.8 99 1006.9 26.6 SW 27.3 0.0 1.3
15:26 16.9 16.8 99 1007.1 23.5 S 27.3 0.0 1.3
15:27 16.9 16.8 99 1007.1 23.5 S 26.6 0.0 1.3
15:28 16.9 16.8 99 1006.9 19.7 S 26.6 0.0 1.3
15:29 16.9 16.8 99 1006.9 28.2 SE 28.2 0.0 1.3
15:30 16.9 16.8 99 1006.9 28.2 S 28.2 0.0 1.3
15:31 16.9 16.8 99 1006.9 25.9 SE 28.2 0.0 1.3
15:32 16.9 16.8 99 1006.8 19.0 S 28.2 0.0 1.3
15:33 16.9 16.8 99 1006.8 18.3 SW 28.2 0.0 1.3
15:34 16.9 16.8 99 1006.8 18.3 SW 28.2 0.0 1.3
15:35 16.9 16.8 99 1006.8 24.4 S 28.2 0.0 1.3
15:36 16.9 16.8 99 1006.8 19.7 S 28.2 0.0 1.3
15:37 16.9 16.8 99 1006.7 25.9 S 28.2 0.0 1.3
15:38 16.9 16.8 99 1006.8 18.3 S 28.2 0.0 1.3
15:39 17.0 16.9 99 1006.7 18.3 SSW 28.2 0.0 1.3
15:41 17.0 16.9 99 1006.6 22.8 ESE 25.9 0.0 1.3
15:42 17.0 16.9 99 1006.6 25.1 SE 25.9 0.0 1.3
15:43 17.0 16.9 99 1006.6 23.5 S 25.9 0.0 1.3
15:44 17.0 16.9 99 1006.6 22.1 E 25.9 0.0 1.3
15:45 17.0 16.9 99 1006.5 22.1 S 25.9 0.0 1.3
15:46 17.0 16.9 99 1006.4 25.9 S 25.9 0.0 1.3
15:47 17.0 16.9 99 1006.4 23.5 SE 25.9 0.0 1.3
15:48 17.0 16.9 99 1006.4 22.1 S 25.9 0.0 1.3
15:49 17.0 16.9 99 1006.4 19.7 S 25.9 0.0 1.3
15:50 17.0 16.9 99 1006.4 19.7 S 25.9 0.0 1.3
15:51 17.0 16.9 99 1006.4 20.6 S 25.9 0.0 1.3
15:52 17.0 16.9 99 1006.5 27.3 S 27.3 0.0 1.3
15:53 17.0 16.9 99 1006.2 25.1 SSW 27.3 0.0 1.3
15:54 17.1 17.0 99 1006.5 23.5 S 27.3 0.0 1.3
15:55 17.1 17.0 99 1006.2 25.1 S 27.3 0.0 1.3
15:57 17.0 16.9 99 1006.3 23.5 S 27.3 0.0 1.3
15:58 17.0 16.9 99 1006.4 19.7 SW 27.3 0.0 1.3
15:59 17.1 17.0 99 1006.1 23.5 SE 27.3 0.0 1.3
16:00 17.0 16.9 99 1006.3 26.6 SE 27.3 0.0 1.3
16:01 17.0 16.9 99 1005.9 24.4 S 27.3 0.0 1.3
16:02 17.0 16.9 99 1006.0 17.4 E 26.6 0.0 1.3
16:03 17.0 16.9 99 1006.2 23.5 SE 26.6 0.0 1.3
16:04 17.0 16.9 99 1006.0 21.3 S 26.6 0.0 1.3
16:05 17.0 16.9 99 1006.1 19.7 S 26.6 0.0 1.3
16:06 17.0 16.9 99 1006.1 19.7 S 26.6 0.0 1.3
16:07 17.0 16.9 99 1005.8 22.1 SW 26.6 0.0 1.3
16:08 17.0 16.9 99 1006.0 19.7 SE 26.6 0.0 1.3
16:09 17.0 16.9 99 1006.0 20.6 SW 26.6 0.0 1.3
16:10 17.0 16.9 99 1006.0 19.7 SW 26.6 0.0 1.3
16:12 17.0 16.9 99 1005.9 15.9 SW 25.1 0.0 1.3
16:13 17.0 16.9 99 1005.8 18.3 S 25.1 0.0 1.3
16:14 17.0 16.9 99 1005.8 22.8 SW 25.1 0.0 1.3
16:15 17.0 16.9 99 1005.8 27.3 S 27.3 0.0 1.3
16:16 17.0 16.9 99 1005.8 22.1 S 27.3 0.0 1.3
16:17 17.0 16.9 99 1005.8 27.3 SE 27.3 0.0 1.3
16:18 17.0 16.9 99 1005.8 24.4 S 27.3 0.8 1.3
16:19 17.0 16.9 99 1005.5 25.1 S 27.3 0.8 1.3
16:20 17.0 16.9 99 1005.5 24.4 S 27.3 0.8 1.3
16:21 17.0 16.9 99 1005.5 19.7 SE 27.3 0.8 1.3
16:22 17.0 16.9 99 1005.5 19.7 SE 27.3 0.8 1.3
16:23 17.0 16.9 99 1005.5 19.7 S 27.3 0.0 1.3
16:24 17.0 16.9 99 1005.5 19.0 SE 27.3 0.0 1.3
16:25 17.0 16.9 99 1005.6 21.3 S 27.3 0.0 1.3
16:26 17.0 16.9 99 1005.6 19.0 SE 27.3 0.0 1.3
16:28 17.0 16.9 99 1005.5 19.0 S 27.3 0.0 1.3
16:29 16.8 16.7 99 1005.6 23.5 S 27.3 0.0 1.3
16:30 17.0 16.9 99 1005.3 20.6 S 27.3 0.0 1.3
16:31 17.0 16.9 99 1005.3 18.3 SW 27.3 0.0 1.3
16:32 17.0 16.9 99 1005.4 25.9 NW 27.3 0.0 1.3
16:33 17.0 16.9 99 1005.3 19.7 S 27.3 0.0 1.3
16:34 17.0 16.9 99 1005.1 23.5 S 27.3 0.0 1.3
16:35 17.0 16.9 99 1005.1 26.6 S 27.3 0.0 1.3
16:36 17.0 16.9 99 1005.2 23.5 SE 27.3 0.0 1.3
16:37 17.0 16.9 99 1005.2 18.3 SW 26.6 0.0 1.3
16:38 17.1 17.0 99 1005.3 30.4 S 30.4 0.0 1.3
16:39 17.0 16.9 99 1005.2 23.5 SE 30.4 0.0 1.3
16:40 17.1 17.0 99 1005.1 22.1 S 30.4 0.0 1.3
16:41 17.1 17.0 99 1005.1 19.7 S 30.4 0.0 1.3
16:42 17.0 16.9 99 1005.1 19.0 S 30.4 0.0 1.3
16:44 17.0 16.9 99 1005.0 19.7 E 30.4 0.0 1.3
16:45 17.0 16.9 99 1005.1 21.3 S 30.4 0.0 1.3
16:46 17.0 16.9 99 1005.1 19.7 S 30.4 0.0 1.3
16:47 17.0 16.9 99 1005.2 23.5 SE 30.4 0.0 1.3
16:48 17.0 16.9 99 1005.2 19.7 S 30.4 0.0 1.3
16:49 17.0 16.9 99 1005.0 25.1 S 25.1 0.0 1.3
16:50 17.0 16.9 99 1004.9 24.4 S 25.1 0.0 1.3
16:51 17.0 16.9 99 1005.0 21.3 NW 25.1 0.0 1.3
16:52 17.0 16.9 99 1005.1 22.1 S 25.1 0.0 1.3
16:53 17.0 16.9 99 1004.9 16.8 S 25.1 0.0 1.3
16:54 17.0 16.9 99 1004.9 16.8 S 25.1 0.0 1.3
16:55 17.0 16.9 99 1005.1 19.7 SE 25.1 0.0 1.3
16:56 17.0 16.9 99 1005.1 24.4 S 25.1 0.0 1.3
16:57 17.0 16.9 99 1004.9 25.1 S 25.1 0.0 1.3
16:58 17.0 16.9 99 1004.9 18.3 SW 25.1 0.0 1.3
17:00 17.0 16.9 99 1004.9 22.8 S 28.2 0.0 1.3
17:01 17.0 16.9 99 1005.0 27.3 S 28.2 0.0 1.3
17:02 17.0 16.9 99 1004.8 22.8 S 28.2 0.0 1.3
17:03 17.0 16.9 99 1004.9 27.3 SE 28.2 0.0 1.3
17:04 17.0 16.9 99 1004.6 26.6 S 28.2 0.0 1.3
17:05 17.1 17.0 99 1004.9 22.1 SSE 28.2 0.0 1.3
17:06 17.1 17.0 99 1004.6 19.7 S 28.2 0.0 1.3
17:07 17.0 16.9 99 1004.9 18.3 SE 28.2 0.0 1.3
17:08 17.0 16.9 99 1004.8 17.4 SE 28.2 0.0 1.3
17:09 17.0 16.9 99 1004.7 20.6 SE 28.2 0.0 1.3
17:10 17.0 16.9 99 1004.7 20.6 SE 27.3 0.0 1.3
17:11 17.1 17.0 99 1004.7 19.7 S 27.3 0.0 1.3
17:12 17.0 16.9 99 1004.7 21.3 S 27.3 0.0 1.3
17:13 17.1 17.0 99 1004.6 27.3 S 27.3 0.0 1.3
17:14 17.0 16.9 99 1004.7 23.5 S 27.3 0.0 1.3
17:15 17.0 16.9 99 1004.8 25.1 S 27.3 0.0 1.3
17:16 17.0 16.9 99 1004.6 24.4 SE 27.3 0.0 1.3
17:17 17.0 16.9 99 1004.6 25.1 S 27.3 0.0 1.3
17:18 17.0 16.9 99 1004.6 18.3 NNE 27.3 0.0 1.3
17:19 17.0 16.9 99 1004.6 23.5 SE 27.3 0.0 1.3
17:20 17.0 16.9 99 1004.6 24.4 SE 27.3 0.0 1.3
17:22 17.0 16.9 99 1004.3 23.5 SE 27.3 0.8 1.4
17:23 17.0 16.9 99 1004.5 19.0 S 27.3 0.8 1.4
17:24 17.0 16.9 99 1004.5 19.7 S 25.1 0.8 1.4
17:25 17.0 16.9 99 1004.4 20.6 SE 25.1 0.8 1.4
17:26 17.0 16.9 99 1004.4 23.5 NW 25.1 0.8 1.4
17:27 17.0 16.9 99 1004.6 24.4 SE 24.4 0.0 1.4
17:28 17.0 16.9 99 1004.3 17.4 SW 24.4 0.0 1.4
17:29 17.0 16.9 99 1004.3 22.8 S 24.4 0.0 1.4
17:30 17.0 16.9 99 1004.4 22.1 S 24.4 0.0 1.4
17:31 17.0 16.9 99 1004.4 23.5 SE 24.4 0.0 1.4
17:32 17.0 16.9 99 1004.4 22.8 S 24.4 0.0 1.4
17:33 17.0 16.9 99 1004.3 22.1 S 24.4 0.0 1.4
17:34 17.0 16.9 99 1004.5 28.2 S 28.2 0.0 1.4
17:35 17.0 16.9 99 1004.1 23.5 E 28.2 0.0 1.4
17:36 17.0 16.9 99 1004.2 22.1 SSE 28.2 0.0 1.4
17:37 17.0 16.9 99 1004.2 28.9 SE 28.9 0.0 1.4
17:39 17.0 16.9 99 1004.2 22.8 S 28.9 0.0 1.4
17:40 17.0 16.9 99 1004.2 22.1 SE 28.9 0.0 1.4
17:41 17.0 16.9 99 1004.1 24.4 S 28.9 0.0 1.4
17:42 17.0 16.9 99 1004.1 28.2 S 28.9 0.0 1.4
17:43 17.0 16.9 99 1004.4 32.7 S 32.7 0.0 1.4
17:44 17.0 16.9 99 1004.1 23.5 S 32.7 0.0 1.4
17:45 17.0 16.9 99 1004.1 28.2 SSE 32.7 0.0 1.4
17:46 17.0 16.9 99 1003.9 19.7 SE 32.7 0.0 1.4
17:47 17.0 16.9 99 1003.8 24.4 S 32.7 0.0 1.4
17:48 17.0 16.9 99 1004.1 20.6 S 32.7 0.0 1.4
17:49 17.0 16.9 99 1004.0 29.8 S 32.7 0.0 1.4
17:50 17.0 16.9 99 1004.0 29.8 S 32.7 0.0 1.4
17:51 17.0 16.9 99 1004.2 25.9 SE 32.7 0.0 1.4
17:52 17.0 16.9 99 1004.2 19.7 S 32.7 0.0 1.4
17:53 17.0 16.9 99 1004.0 28.9 S 32.7 0.0 1.4
17:54 17.0 16.9 99 1003.9 26.6 SE 29.8 0.0 1.4
17:56 17.0 16.9 99 1003.9 24.4 S 29.8 0.0 1.4
17:57 17.0 16.9 99 1003.9 25.1 S 29.8 0.0 1.4
17:58 17.0 16.9 99 1003.8 19.0 S 29.8 0.0 1.4
17:59 17.0 16.9 99 1003.7 26.6 SE 29.8 0.0 1.4
18:00 17.0 16.9 99 1003.6 25.9 SE 28.9 0.8 1.4
18:01 17.0 16.9 99 1003.6 24.4 S 28.9 0.8 1.5
18:02 17.0 16.9 99 1003.7 22.8 S 28.9 1.5 1.5
18:03 17.0 16.9 99 1003.6 22.1 S 27.3 1.5 1.5
18:04 17.0 16.9 99 1003.6 30.4 SE 30.4 1.5 1.5
18:05 16.8 16.7 99 1003.6 29.8 S 30.4 1.5 1.6
18:06 16.8 16.7 99 1003.6 29.8 S 30.4 1.5 1.6
18:07 17.0 16.9 99 1003.5 22.8 S 30.4 1.5 1.6
18:08 17.0 16.9 99 1003.5 21.3 S 30.4 1.5 1.6
18:09 17.0 16.9 99 1003.5 22.1 S 30.4 2.3 1.7
18:10 17.0 16.9 99 1003.5 26.6 S 30.4 2.3 1.8
18:11 17.0 16.9 99 1003.7 32.0 S 32.0 2.3 1.9
18:13 17.0 16.9 99 1003.4 23.5 S 32.7 3.8 2.0
18:14 17.0 16.9 99 1003.5 20.6 S 32.7 3.0 2.0
18:15 17.0 16.9 99 1003.4 26.6 SE 32.7 2.3 2.0
18:16 17.0 16.9 99 1003.3 31.1 SE 32.7 3.0 2.0
18:17 17.0 16.9 99 1003.4 28.9 SE 32.7 1.5 2.0
18:18 17.0 16.9 99 1003.3 21.3 S 32.7 0.8 2.1
18:19 17.0 16.9 99 1003.1 22.8 SSW 32.7 1.5 2.1
18:20 17.0 16.9 99 1003.1 25.9 SE 32.7 2.3 2.2
18:21 17.0 16.9 99 1003.2 26.6 E 32.7 2.3 2.3
18:22 17.0 16.9 99 1003.3 18.3 SW 31.1 3.0 2.3
18:23 17.0 16.9 99 1003.0 23.5 S 31.1 3.0 2.3
18:24 17.0 16.9 99 1003.3 22.8 SE 31.1 3.0 2.4
18:25 17.0 16.9 99 1003.2 27.3 S 31.1 3.8 2.5
18:26 17.0 16.9 99 1003.2 21.3 S 31.1 3.8 2.5
18:27 16.9 16.8 99 1003.0 21.3 S 31.1 3.0 2.6
18:28 16.8 16.7 99 1002.9 26.6 S 28.9 3.8 2.6
18:30 16.9 16.8 99 1003.0 16.8 SW 28.9 2.3 2.6
18:31 16.9 16.8 99 1002.9 22.8 S 28.9 2.3 2.8
18:32 16.9 16.8 99 1002.6 29.8 S 29.8 3.0 2.9
18:33 16.9 16.8 99 1002.8 23.5 SE 29.8 3.8 3.0
18:34 16.9 16.8 99 1002.6 19.7 SE 29.8 3.8 3.0
18:35 16.9 16.8 99 1002.6 20.6 S 29.8 4.5 3.1
18:36 16.9 16.8 99 1002.6 18.3 S 29.8 5.3 3.3
18:37 16.9 16.8 99 1002.5 21.3 SE 29.8 6.0 3.3
18:38 16.9 16.8 99 1002.6 24.4 SE 29.8 5.3 3.4
18:39 16.9 16.8 99 1002.6 23.5 SSW 29.8 5.3 3.4
18:40 16.9 16.8 99 1002.4 20.6 S 29.8 4.5 3.5
18:41 16.9 16.8 99 1002.4 19.7 S 29.8 5.3 3.6
18:42 16.9 16.8 99 1002.3 25.9 S 29.8 6.0 3.8
18:43 16.9 16.8 99 1002.3 22.1 S 29.8 6.8 4.0
18:44 16.9 16.8 99 1002.3 26.6 SE 26.6 6.8 4.0
18:45 16.9 16.8 99 1002.3 27.3 SE 27.3 9.1 4.2
18:46 16.9 16.8 99 1002.3 26.6 S 27.3 7.5 4.2
18:48 16.9 16.8 99 1002.2 22.1 S 27.3 8.3 4.6
18:49 16.9 16.8 99 1002.1 25.9 S 27.3 9.1 4.7
18:50 16.9 16.8 99 1002.2 24.4 SE 27.3 8.3 5.0
18:51 16.9 16.8 99 1002.1 27.3 S 27.3 9.1 5.2
18:52 16.9 16.8 99 1001.9 26.6 S 27.3 11.3 5.4
18:53 16.9 16.8 99 1002.0 28.9 S 28.9 9.0 5.4
18:54 16.9 16.8 99 1002.0 25.9 SE 28.9 8.3 5.5
18:55 16.9 16.8 99 1001.9 16.8 S 28.9 7.6 5.5
18:56 16.9 16.8 99 1001.9 20.6 S 28.9 6.8 5.5
18:57 16.9 16.8 99 1001.9 25.9 SE 28.9 3.0 5.5
18:58 16.9 16.8 99 1001.9 25.9 SE 28.9 2.3 5.5
18:59 16.9 16.8 99 1002.0 22.8 SW 28.9 2.3 5.7
19:00 16.9 16.8 99 1001.8 19.7 SW 28.9 2.3 5.7
19:01 16.9 16.8 99 1001.7 28.9 SE 28.9 2.3 5.7
19:02 16.9 16.8 99 1001.7 28.9 SE 28.9 3.0 5.8
19:03 16.9 16.8 99 1001.9 26.6 S 28.9 3.8 5.9
19:04 16.9 16.8 99 1001.8 39.6 S 39.6 5.3 6.0
19:06 16.9 16.8 99 1001.8 28.9 S 39.6 5.3 6.2
19:07 16.9 16.8 99 1001.7 25.1 SE 39.6 6.0 6.5
19:08 16.9 16.8 99 1001.8 26.6 S 39.6 9.1 6.6
19:09 16.9 16.8 99 1001.7 28.9 S 39.6 9.8 6.9
19:11 16.9 16.8 99 1001.7 25.1 S 39.6 10.6 7.4
19:12 16.9 16.8 99 1001.6 32.0 S 39.6 15.9 7.7
19:13 16.9 16.8 99 1001.6 31.1 SE 39.6 13.6 7.9
19:14 16.9 16.8 99 1001.7 28.9 SW 32.0 12.1 8.0
19:15 16.9 16.8 99 1001.6 30.4 S 32.0 11.3 8.1
19:16 16.9 16.8 99 1001.4 30.4 S 32.0 13.6 8.3
19:17 16.9 16.8 99 1001.5 28.2 SSE 32.0 8.3 8.4
19:18 16.9 16.8 99 1001.6 28.2 SE 32.0 7.5 8.4
19:19 16.7 16.6 99 1001.6 24.4 SW 32.0 6.8 8.5
19:20 16.9 16.8 99 1001.7 25.1 S 32.0 7.6 8.6
19:21 16.9 16.8 99 1001.4 32.0 S 32.0 6.8 8.8
19:22 16.9 16.8 99 1001.5 21.3 SE 32.0 6.0 8.8
19:23 16.9 16.8 99 1001.5 19.7 SW 32.0 6.8 8.9
19:24 16.9 16.8 99 1001.3 27.3 NNE 32.0 6.0 8.9
19:25 16.9 16.8 99 1001.5 30.4 SE 32.0 4.5 9.0
19:26 16.9 16.8 99 1001.6 32.0 S 32.0 3.0 9.0
19:28 16.9 16.8 99 1001.6 28.9 S 32.7 2.3 9.1
19:29 16.9 16.8 99 1001.5 24.4 S 32.7 3.0 9.2
19:30 16.9 16.8 99 1001.5 22.8 S 32.7 5.3 9.8
19:31 16.9 16.8 99 1001.3 21.3 S 32.7 9.8 10.4
19:32 16.9 16.8 99 1001.2 25.9 S 32.7 21.2 11.0
19:33 16.9 16.8 99 1001.3 27.3 SW 32.7 22.7 11.2
19:34 16.9 16.8 99 1001.3 25.1 S 32.7 24.2 11.4
19:35 16.9 16.8 99 1001.4 29.8 SE 32.7 23.4 11.6
19:36 16.9 16.8 99 1001.4 25.9 SW 32.7 23.4 11.9
19:37 16.9 16.8 99 1001.4 32.7 NNE 32.7 12.9 12.0
19:38 16.9 16.8 99 1001.4 32.7 NNE 32.7 12.1 12.0
19:39 16.9 16.8 99 1001.4 29.8 SE 32.7 11.3 12.3
19:40 16.9 16.8 99 1001.3 25.9 S 32.7 14.4 12.6
19:41 16.9 16.8 99 1001.2 20.6 S 32.7 11.3 12.7
19:42 16.9 16.8 99 1001.0 28.9 S 32.7 11.3 12.9
19:43 16.9 16.8 99 1001.0 28.2 WSW 32.7 12.1 13.2
19:44 16.9 16.8 99 1001.1 25.1 S 32.7 14.4 13.4
19:46 16.9 16.8 99 1001.2 32.0 S 32.7 10.6 13.6
19:47 16.9 16.8 99 1001.1 24.4 SW 32.7 10.6 13.8
19:48 16.9 16.8 99 1001.0 31.1 S 32.7 9.8 14.0
19:49 16.9 16.8 99 1001.2 30.4 SE 32.0 7.6 14.0
19:50 16.9 16.8 99 1001.2 28.9 SW 32.0 6.8 14.1
19:51 16.9 16.8 99 1001.1 32.7 SW 32.7 6.0 14.2
19:52 16.9 16.8 99 1001.2 23.5 E 32.7 6.0 14.4
19:53 16.9 16.8 99 1001.1 38.7 SE 38.7 6.0 14.4
19:54 16.9 16.8 99 1001.0 28.2 SW 38.7 5.3 14.5
19:55 16.9 16.8 99 1001.1 33.6 S 38.7 5.3 14.6
19:56 16.9 16.8 99 1001.2 27.3 SE 38.7 6.0 14.6
19:57 16.9 16.8 99 1001.2 25.1 SE 38.7 5.3 14.7
19:58 16.9 16.8 99 1001.3 26.6 S 38.7 3.8 14.7
19:59 16.9 16.8 99 1001.1 28.9 S 38.7 3.8 14.7
20:00 16.9 16.8 99 1001.1 27.3 SSW 38.7 3.0 14.7
20:01 16.9 16.8 99 1001.2 28.2 SE 38.7 2.3 14.8
20:02 16.8 16.7 99 1001.1 25.1 SW 38.7 2.3 14.9
20:03 16.8 16.7 99 1000.9 27.3 SE 38.7 2.3 14.9
20:05 16.8 16.7 99 1000.9 25.1 S 33.6 3.0 15.0
20:06 16.8 16.7 99 1000.9 28.9 S 32.7 2.3 15.1
20:07 16.8 16.7 99 1000.9 25.9 SSW 32.7 3.0 15.2
20:08 16.7 16.6 99 1001.0 30.4 SE 32.7 6.8 15.7
20:09 16.7 16.6 99 1000.9 30.4 S 32.7 9.1 15.9
20:10 16.7 16.6 99 1000.9 30.4 S 32.7 10.6 15.9
20:11 16.7 16.6 99 1000.8 26.6 SW 32.7 10.6 16.2
20:12 16.7 16.6 99 1000.8 22.8 S 32.7 13.6 16.4
20:13 16.7 16.6 99 1000.5 28.9 SE 32.7 11.3 16.5
20:14 16.7 16.6 99 1000.6 25.9 S 30.4 9.8 16.6
20:15 16.7 16.6 99 1000.7 22.1 S 30.4 8.3 16.6
20:16 16.7 16.6 99 1000.6 21.3 WNW 30.4 9.1 16.8
20:17 16.7 16.6 99 1000.6 25.9 SE 30.4 10.6 17.1
20:18 16.7 16.6 99 1000.4 25.1 S 30.4 15.1 17.8
20:19 16.7 16.6 99 1000.4 23.5 SE 30.4 15.1 17.9
20:20 16.8 16.7 99 1000.5 27.3 S 30.4 18.1 18.1
20:21 16.8 16.7 99 1000.5 28.9 S 28.9 17.4 18.5
20:22 16.8 16.7 99 1000.3 27.3 S 28.9 18.9 18.9
20:24 16.8 16.7 99 1000.3 22.8 SE 28.9 16.6 19.4
20:25 16.8 16.7 99 1000.2 25.1 SE 28.9 15.9 19.6
20:26 16.8 16.7 99 1000.3 25.1 S 28.9 18.1 19.8
20:27 16.8 16.7 99 1000.2 25.9 S 28.9 13.6 20.0
20:28 16.8 16.7 99 1000.1 27.3 SE 28.9 12.9 20.1
20:29 16.8 16.7 99 1000.1 26.6 SE 28.9 11.3 20.2
20:30 16.8 16.7 99 1000.1 21.3 SE 28.9 9.1 20.2
20:31 16.8 16.7 99 1000.1 30.4 S 30.4 6.8 20.2
20:32 16.9 16.8 99 1000.0 25.9 S 30.4 4.5 20.3
20:33 16.9 16.8 99 1000.0 32.7 S 32.7 3.8 20.4
20:34 16.9 16.8 99 1000.0 28.2 S 32.7 3.8 20.5
20:35 16.9 16.8 99 1000.0 30.4 S 32.7 3.8 20.5
20:36 16.9 16.8 99 1000.3 28.9 S 32.7 4.5 20.5
20:37 16.9 16.8 99 1000.0 30.4 SE 32.7 3.8 20.5
20:38 16.9 16.8 99 1000.2 19.0 S 32.7 3.8 20.6
20:39 16.9 16.8 99 1000.2 27.3 S 32.7 2.3 20.7
20:40 16.9 16.8 99 1000.3 34.9 S 34.9 2.3 20.8
20:41 16.9 16.8 99 1000.2 27.3 S 34.9 3.0 21.0
20:42 16.9 16.8 99 999.7 24.4 S 34.9 6.0 21.1
20:43 16.9 16.8 99 1000.0 29.8 S 34.9 6.0 21.2
20:44 16.9 16.8 99 1000.0 28.2 S 34.9 6.8 21.3
20:45 16.9 16.8 99 999.8 24.4 SE 34.9 7.6 21.4
20:46 16.9 16.8 99 999.8 30.4 S 34.9 7.6 21.5
20:47 16.9 16.8 99 999.8 25.9 S 34.9 6.0 21.7
20:48 16.8 16.7 99 999.8 26.6 SW 34.9 6.8 21.9
20:49 16.9 16.8 99 999.8 31.1 NW 34.9 9.1 22.0
20:50 16.9 16.8 99 999.8 29.8 S 34.2 8.3 22.0
20:51 16.9 16.8 99 999.8 28.9 SW 34.2 7.6 22.0
20:52 16.9 16.8 99 999.8 30.4 S 31.1 6.0 22.2
20:53 16.9 16.8 99 999.8 30.4 S 31.1 6.8 22.2
20:54 16.8 16.7 99 1000.1 30.4 SE 31.1 4.5 22.4
20:55 16.9 16.8 99 1000.7 34.2 S 34.2 4.5 22.4
20:56 16.9 16.8 99 1000.3 41.8 SE 41.8 4.5 22.6
20:57 16.9 16.8 99 1000.3 33.6 S 41.8 6.0 22.6
20:58 16.9 16.8 99 1000.4 30.4 S 41.8 4.5 22.7
20:59 16.9 16.8 99 1000.3 32.7 S 41.8 4.5 22.7
21:00 16.9 16.8 99 1000.5 28.9 SW 41.8 4.5 22.9
21:01 16.9 16.8 99 1000.3 30.4 NNE 41.8 5.3 22.9
21:03 16.8 16.7 99 1000.6 32.7 S 41.8 4.5 23.0
21:04 16.7 16.6 99 1000.5 22.8 SE 41.8 3.8 23.1
21:05 16.7 16.6 99 1000.5 25.1 SW 41.8 3.8 23.1
21:06 16.6 16.5 99 1000.5 25.9 S 33.6 3.0 23.1
21:07 16.6 16.5 99 1000.5 28.2 S 32.7 2.3 23.2
21:08 16.5 16.4 99 1000.6 25.1 SSW 32.7 2.3 23.2
21:09 16.5 16.4 99 1000.7 23.5 SSW 32.7 2.3 23.2
21:10 16.5 16.4 99 1000.7 23.5 SSW 32.7 1.5 23.2
21:12 16.3 16.2 99 1000.7 25.9 S 32.7 1.5 23.2
21:13 16.3 16.2 99 1000.6 25.1 SW 32.7 0.8 23.2
21:15 16.2 16.1 99 1000.6 19.7 SW 28.9 0.8 23.2
21:16 16.2 16.1 99 1000.6 18.3 SW 28.9 0.8 23.2
21:17 16.2 16.1 99 1000.5 28.9 NE 28.9 0.0 23.2
21:18 16.2 16.1 99 1000.6 23.5 S 28.9 0.0 23.2
21:19 16.1 16.0 99 1000.6 30.4 SW 30.4 0.0 23.2
21:20 16.1 16.0 99 1000.7 20.6 SW 30.4 0.0 23.2
21:21 16.1 16.0 99 1000.6 26.6 S 30.4 0.0 23.2
21:22 16.1 16.0 99 1000.7 17.4 S 30.4 0.0 23.2
21:23 16.0 15.9 99 1000.6 33.6 S 33.6 0.0 23.2
21:24 16.0 15.9 99 1000.6 22.8 SW 33.6 0.0 23.2
21:25 16.0 15.9 99 1000.6 22.8 SW 33.6 0.0 23.2
21:26 16.0 15.9 99 1000.6 25.9 S 33.6 0.0 23.2
21:27 16.0 15.9 99 1000.7 25.1 S 33.6 0.0 23.3
21:28 16.0 15.9 99 1000.8 21.3 SW 33.6 0.8 23.3
21:29 16.0 15.9 99 1000.7 28.9 SW 33.6 0.8 23.3
21:30 16.0 15.9 99 1000.8 19.7 S 33.6 0.8 23.4
21:31 16.0 15.9 99 1000.8 28.2 S 33.6 1.5 23.4
21:32 16.0 15.9 99 1000.6 28.2 S 33.6 1.5 23.4
21:34 15.9 15.8 99 1000.6 26.6 SW 28.9 0.8 23.4
21:35 15.9 15.8 99 1000.7 18.3 S 28.9 0.8 23.4
21:36 15.9 15.8 99 1000.9 28.2 S 28.9 0.8 23.4
21:37 15.9 15.8 99 1000.6 25.9 SW 28.9 0.8 23.4
21:38 16.0 15.9 99 1000.6 17.4 SE 28.9 0.8 23.4
21:39 15.9 15.8 99 1000.7 14.5 SW 28.9 0.8 23.4
21:40 16.0 15.9 99 1000.6 19.0 S 28.9 0.8 23.4
21:41 15.9 15.8 99 1000.4 22.8 SW 28.9 0.0 23.4
21:42 16.1 16.0 99 1000.6 21.3 SW 28.9 0.0 23.5
21:43 16.0 15.9 99 1000.8 26.6 S 28.9 0.8 23.5
21:44 16.0 15.9 99 1000.6 25.9 S 30.4 0.8 23.5
21:45 16.0 15.9 99 1000.6 25.9 S 30.4 0.8 23.5
21:46 16.0 15.9 99 1000.8 27.3 S 30.4 1.5 23.6
21:47 15.9 15.8 99 1001.0 27.3 SW 30.4 2.3 23.7
21:48 16.0 15.9 99 1000.9 22.8 NW 30.4 2.3 23.7
21:49 15.9 15.8 99 1001.0 25.1 S 30.4 3.0 23.8
21:50 15.8 15.7 99 1001.1 19.7 S 30.4 3.0 23.8
21:51 15.8 15.7 99 1001.0 22.8 S 30.4 2.3 23.8
21:52 15.7 15.6 99 1001.1 19.0 SW 30.4 1.5 23.8
21:54 15.6 15.5 99 1001.1 15.2 NW 30.4 0.0 23.8
21:55 15.5 15.4 99 1001.1 15.9 SW 27.3 0.0 23.8
21:56 15.4 15.3 99 1001.1 19.0 SW 27.3 0.0 23.8
21:57 15.4 15.3 99 1001.2 15.2 S 25.9 0.0 23.8
21:58 15.4 15.3 99 1001.1 15.9 SE 25.9 0.0 23.8
21:59 15.3 15.2 99 1001.3 19.7 SW 25.9 0.0 23.8
22:00 15.3 15.2 99 1001.3 16.8 SW 24.4 0.0 23.8
22:01 15.2 15.1 99 1001.2 19.0 SW 24.4 0.0 23.8
22:02 15.2 15.1 99 1001.3 24.4 NNW 24.4 0.0 23.8
22:03 15.1 15.0 99 1001.3 19.0 S 24.4 0.0 23.8
22:04 15.1 15.0 99 1001.2 18.3 S 24.4 0.0 23.8
22:05 15.1 15.0 99 1001.3 22.8 SW 24.4 0.0 23.8
22:06 14.9 14.8 99 1001.2 15.2 SW 24.4 0.0 23.8
22:07 14.9 14.8 99 1001.3 19.0 WSW 24.4 0.0 23.8
22:08 14.9 14.8 99 1001.3 25.1 NW 25.1 0.0 23.8
22:09 14.8 14.7 99 1001.3 14.5 SW 25.1 0.0 23.8
22:10 14.8 14.7 99 1001.4 19.0 NW 25.1 0.0 23.8
22:11 14.7 14.6 99 1001.3 13.0 N 25.1 0.0 23.8
22:12 14.7 14.6 99 1001.5 15.2 N 25.1 0.0 23.8
22:13 14.6 14.5 99 1001.5 18.3 SSW 25.1 0.0 23.8
22:14 14.5 14.4 99 1001.7 21.3 NW 25.1 0.0 23.8
22:15 14.5 14.4 99 1001.8 22.1 S 28.2 0.0 23.8
22:16 14.4 14.3 99 1001.6 23.5 S 28.2 0.0 23.8
22:17 14.4 14.3 99 1001.6 22.8 SW 28.2 0.0 23.8
22:18 14.3 14.2 99 1001.7 28.9 NE 28.9 0.0 23.8
22:19 14.2 14.1 99 1001.7 22.8 SW 29.8 0.0 23.8
22:20 14.2 14.1 99 1001.6 22.1 SW 29.8 0.0 23.8
22:21 14.1 14.0 99 1001.7 28.2 S 29.8 0.0 23.8
22:22 14.1 14.0 99 1001.8 17.4 W 29.8 0.0 23.8
22:23 14.0 13.9 99 1001.7 15.2 SW 29.8 0.0 23.8
22:24 14.0 13.9 99 1001.6 15.2 SW 29.8 0.0 23.8
22:25 14.0 13.9 99 1001.8 21.3 SW 29.8 0.0 23.8
22:26 13.9 13.8 99 1001.5 15.2 SW 29.8 0.0 23.8
22:27 13.8 13.7 99 1001.7 21.3 SW 29.8 0.0 23.8
22:28 13.8 13.7 99 1001.8 19.7 SW 29.8 0.0 23.8
22:29 13.8 13.7 99 1001.8 17.4 WSW 29.8 0.0 23.8
22:30 13.7 13.6 99 1002.0 15.2 WNW 28.2 0.0 23.8
22:31 13.7 13.6 99 1001.8 14.5 S 28.2 0.0 23.8
22:32 13.7 13.6 99 1001.8 17.4 S 21.3 0.0 23.8
22:33 13.6 13.5 99 1001.9 19.0 WSW 21.3 0.0 23.8
22:34 13.6 13.5 99 1001.9 16.8 SW 21.3 0.0 23.8
22:35 13.5 13.4 99 1001.9 15.2 NW 21.3 0.0 23.8
22:36 13.5 13.4 99 1002.0 18.3 SW 21.3 0.0 23.8
22:37 13.5 13.4 99 1001.9 17.4 SW 19.7 0.0 23.8
22:38 13.4 13.3 99 1002.0 22.8 SW 22.8 0.0 23.8
22:39 13.4 13.3 99 1002.0 17.4 NW 22.8 0.0 23.8
22:40 13.3 13.2 99 1001.8 16.8 NW 22.8 0.0 23.8
22:41 13.3 13.2 99 1001.8 19.7 S 22.8 0.0 23.8
22:43 13.2 13.1 99 1002.0 17.4 SW 22.8 0.0 23.8
22:44 13.2 13.1 99 1002.1 16.8 SW 22.8 0.0 23.8
22:45 13.1 13.0 99 1002.1 14.5 S 22.8 0.0 23.8
22:46 13.1 13.0 99 1002.1 22.8 SW 22.8 0.0 23.8
22:47 13.1 13.0 99 1002.3 18.3 SW 22.8 0.0 23.8
22:48 13.0 12.9 99 1002.1 14.5 SW 22.8 0.0 23.8
22:49 13.0 12.9 99 1002.1 20.6 SW 22.8 0.0 23.8
22:50 13.0 12.9 99 1002.1 22.1 SW 23.5 0.0 23.8
22:51 13.0 12.9 99 1002.2 15.9 SW 23.5 0.0 23.8
22:53 12.9 12.8 99 1002.3 19.0 S 23.5 0.0 23.8
22:54 12.9 12.8 99 1002.3 17.4 SW 23.5 0.0 23.8
22:55 12.9 12.8 99 1002.2 14.5 SW 23.5 0.0 23.8
22:56 12.8 12.7 99 1002.3 12.1 S 23.5 0.0 23.8
22:57 12.8 12.7 99 1002.1 13.6 N 23.5 0.0 23.8
22:58 12.8 12.7 99 1002.3 15.9 SW 23.5 0.0 23.8
22:59 12.8 12.7 99 1002.2 14.5 S 23.5 0.0 23.8
23:00 12.7 12.6 99 1002.3 19.7 SW 23.5 0.0 23.8
23:01 12.7 12.6 99 1002.3 17.4 SW 21.3 0.0 23.8
23:02 12.7 12.6 99 1002.3 15.2 S 21.3 0.0 23.8
23:03 12.7 12.6 99 1002.1 16.8 NW 19.7 0.0 23.8
23:04 12.7 12.6 99 1002.2 15.9 SW 19.7 0.0 23.8
23:05 12.7 12.6 99 1002.4 13.6 SW 19.7 0.0 23.8
23:06 12.7 12.6 99 1002.3 13.0 SW 19.7 0.0 23.8
23:07 12.7 12.6 99 1002.3 12.1 S 19.7 0.0 23.8
23:08 12.7 12.6 99 1002.3 11.4 SW 19.7 0.0 23.8
23:09 12.7 12.6 99 1002.3 16.8 SW 19.7 0.0 23.8
23:10 12.7 12.6 99 1002.4 13.0 SW 19.7 0.0 23.8
23:11 12.7 12.6 99 1002.4 17.4 SW 17.4 0.0 23.8
23:13 12.7 12.6 99 1002.4 13.6 SSW 17.4 0.0 23.8
23:14 12.7 12.6 99 1002.3 16.8 SW 17.4 0.0 23.8
23:15 12.7 12.6 99 1002.6 17.4 SW 17.4 0.0 23.8
23:16 12.7 12.6 99 1002.3 14.5 S 17.4 0.0 23.8
23:17 12.6 12.5 99 1002.5 15.2 SW 17.4 0.0 23.8
23:18 12.6 12.5 99 1002.6 14.5 SW 17.4 0.0 23.8
23:19 12.6 12.5 99 1002.6 15.9 WNW 17.4 0.0 23.8
23:20 12.6 12.5 99 1002.6 11.4 SW 17.4 0.0 23.8
23:21 12.6 12.5 99 1002.8 16.8 SW 17.4 0.0 23.8
23:22 12.6 12.5 99 1002.5 13.0 SW 17.4 0.0 23.8
23:23 12.6 12.5 99 1002.6 16.8 SW 17.4 0.0 23.8
23:24 12.6 12.5 99 1002.7 16.8 WSW 17.4 0.0 23.8
23:25 12.5 12.4 99 1002.7 13.6 SW 16.8 0.0 23.8
23:26 12.5 12.4 99 1002.7 15.9 NW 16.8 0.0 23.8
23:27 12.5 12.4 99 1002.9 18.3 S 18.3 0.0 23.8
23:29 12.4 12.3 99 1002.8 13.6 W 18.3 0.0 23.8
23:30 12.4 12.3 99 1002.7 17.4 NW 18.3 0.0 23.8
23:31 12.4 12.3 99 1002.8 19.0 S 19.0 0.0 23.8
23:32 12.4 12.3 99 1002.8 15.2 SW 19.0 0.0 23.8
23:33 12.4 12.3 99 1002.7 18.3 SW 19.0 0.0 23.8
23:34 12.3 12.2 99 1002.8 11.4 SE 19.0 0.0 23.8
23:35 12.4 12.3 99 1002.8 16.8 SW 19.0 0.0 23.8
23:36 12.3 12.2 99 1002.8 15.2 SW 19.7 0.0 23.8
23:37 12.3 12.2 99 1002.9 14.5 SW 19.7 0.0 23.8
23:38 12.3 12.2 99 1002.8 14.5 S 19.7 0.0 23.8
23:39 12.3 12.2 99 1002.9 19.7 S 19.7 0.0 23.8
23:40 12.3 12.2 99 1002.9 10.7 SW 19.7 0.0 23.8
23:41 12.3 12.2 99 1003.0 15.9 SW 19.7 0.0 23.8
23:42 12.3 12.2 99 1003.1 13.0 SW 19.7 0.0 23.8
23:43 12.3 12.2 99 1002.9 14.5 SW 19.7 0.0 23.8
23:44 12.2 12.1 99 1003.0 10.7 SW 19.7 0.0 23.8
23:45 12.2 12.1 99 1002.9 13.0 S 19.7 0.0 23.8
23:46 12.2 12.1 99 1003.0 13.0 SW 19.7 0.0 23.8
23:48 12.2 12.1 99 1002.9 14.5 SW 19.7 0.0 23.8
23:49 12.2 12.1 99 1003.0 12.1 SW 19.7 0.0 23.8
23:50 12.1 12.0 99 1002.9 15.2 S 15.9 0.0 23.8
23:51 12.1 12.0 99 1003.1 14.5 SW 15.9 0.0 23.8
23:52 12.1 12.0 99 1003.0 12.1 SW 15.2 0.0 23.8
23:53 12.1 12.0 99 1003.1 14.5 NW 15.2 0.0 23.8
23:54 12.1 12.0 99 1003.1 12.1 SW 15.2 0.0 23.8
23:55 12.1 12.0 99 1003.0 12.1 SW 15.2 0.0 23.8
23:56 12.0 11.9 99 1003.0 10.7 WSW 15.2 0.0 23.8
23:57 12.1 12.0 99 1003.0 12.1 S 15.2 0.0 23.8
23:58 12.0 11.9 99 1003.0 17.4 SSW 17.4 0.0 23.8
23:59 12.0 11.9 99 1003.0 14.5 SW 17.4 0.0 23.8

UK - WEATHER STATION TOPSITES - UK World Weather Websites

This is a private weather station, never base important decisions or events on data from this weather station. Although every effort has been made to make the data as accurate as possible it does not meet MetOffice standards. It is proved as a guide of local weather conditions. We accept no liability for any loss which may arise from use of the data.

Copyright © Carnkie Weather 2009 - 2018.